Observation data for Lake Alan Henry on 08/12/2020      Previous  Date  Next       Current Mesonet Observations  Soil Data  Daily Summary Page  Observations in Plain Language
KAHS 120500Z 20005KT 31/15 A2993 RMK A01 T03140145  RH  036%=      5-min Rain = 0
KAHS 120501Z 20006KT 31/15 A2993 RMK A01 T03140145  RH  036%=      5-min Rain = 0
KAHS 120502Z 19005KT 31/14 A2993 RMK A01 T03130144  RH  036%=      5-min Rain = 0
KAHS 120503Z 19007KT 31/14 A2993 RMK A01 T03130144  RH  036%=      5-min Rain = 0
KAHS 120504Z 19006KT 31/14 A2993 RMK A01 T03130144  RH  036%=      5-min Rain = 0
KAHS 120505Z 19005KT 31/14 A2993 RMK A01 T03130144  RH  036%=      5-min Rain = 0
KAHS 120506Z 19005KT 31/14 A2993 RMK A01 T03130144  RH  036%=      5-min Rain = 0
KAHS 120507Z 19005KT 31/14 A2993 RMK A01 T03120144  RH  036%=      5-min Rain = 0
KAHS 120508Z 20006KT 31/14 A2993 RMK A01 T03120143  RH  036%=      5-min Rain = 0
KAHS 120509Z 19006KT 31/14 A2993 RMK A01 T03110143  RH  036%=      5-min Rain = 0
KAHS 120510Z 19006KT 31/14 A2993 RMK A01 T03110142  RH  036%=      5-min Rain = 0
KAHS 120511Z 19005KT 31/14 A2993 RMK A01 T03120142  RH  036%=      5-min Rain = 0
KAHS 120512Z 19006KT 31/14 A2993 RMK A01 T03120142  RH  036%=      5-min Rain = 0
KAHS 120513Z 19006KT 31/14 A2993 RMK A01 T03120142  RH  036%=      5-min Rain = 0
KAHS 120514Z 19006KT 31/14 A2993 RMK A01 T03120142  RH  036%=      5-min Rain = 0
KAHS 120515Z 20006KT 31/14 A2993 RMK A01 T03120141  RH  036%=      5-min Rain = 0
KAHS 120516Z 19006KT 31/14 A2993 RMK A01 T03120141  RH  035%=      5-min Rain = 0
KAHS 120517Z 19007KT 31/14 A2993 RMK A01 T03120141  RH  035%=      5-min Rain = 0
KAHS 120518Z 19007KT 31/14 A2993 RMK A01 T03130141  RH  035%=      5-min Rain = 0
KAHS 120519Z 19006KT 31/14 A2993 RMK A01 T03120141  RH  035%=      5-min Rain = 0
KAHS 120520Z 19006KT 31/14 A2993 RMK A01 T03120141  RH  035%=      5-min Rain = 0
KAHS 120521Z 19007KT 31/14 A2993 RMK A01 T03120141  RH  035%=      5-min Rain = 0
KAHS 120522Z 19006KT 31/14 A2993 RMK A01 T03120141  RH  035%=      5-min Rain = 0
KAHS 120523Z 19007KT 31/14 A2993 RMK A01 T03110142  RH  036%=      5-min Rain = 0
KAHS 120524Z 19007KT 31/14 A2993 RMK A01 T03110142  RH  036%=      5-min Rain = 0
KAHS 120525Z 19006KT 31/14 A2993 RMK A01 T03110142  RH  036%=      5-min Rain = 0
KAHS 120526Z 19006KT 31/14 A2993 RMK A01 T03100143  RH  036%=      5-min Rain = 0
KAHS 120527Z 19006KT 31/14 A2993 RMK A01 T03100143  RH  036%=      5-min Rain = 0
KAHS 120528Z 19006KT 31/14 A2994 RMK A01 T03090142  RH  036%=      5-min Rain = 0
KAHS 120529Z 19006KT 31/14 A2994 RMK A01 T03090143  RH  036%=      5-min Rain = 0
KAHS 120530Z 19007KT 31/14 A2994 RMK A01 T03090142  RH  036%=      5-min Rain = 0
KAHS 120531Z 19007KT 31/14 A2994 RMK A01 T03100142  RH  036%=      5-min Rain = 0
KAHS 120532Z 19007KT 31/14 A2994 RMK A01 T03100142  RH  036%=      5-min Rain = 0
KAHS 120533Z 19007KT 31/14 A2994 RMK A01 T03110142  RH  036%=      5-min Rain = 0
KAHS 120534Z 20007KT 31/14 A2994 RMK A01 T03100142  RH  036%=      5-min Rain = 0
KAHS 120535Z 19007KT 31/14 A2994 RMK A01 T03110142  RH  036%=      5-min Rain = 0
KAHS 120536Z 19006KT 31/14 A2994 RMK A01 T03110142  RH  036%=      5-min Rain = 0
KAHS 120537Z 19006KT 31/14 A2994 RMK A01 T03100142  RH  036%=      5-min Rain = 0
KAHS 120538Z 19006KT 31/14 A2994 RMK A01 T03090142  RH  036%=      5-min Rain = 0
KAHS 120539Z 20007KT 31/14 A2994 RMK A01 T03090142  RH  036%=      5-min Rain = 0
KAHS 120540Z 20007KT 31/14 A2994 RMK A01 T03080142  RH  036%=      5-min Rain = 0
KAHS 120541Z 19006KT 31/14 A2994 RMK A01 T03080143  RH  037%=      5-min Rain = 0
KAHS 120542Z 19007KT 31/14 A2994 RMK A01 T03070143  RH  037%=      5-min Rain = 0
KAHS 120543Z 19008KT 31/14 A2994 RMK A01 T03070142  RH  037%=      5-min Rain = 0
KAHS 120544Z 19006KT 31/14 A2994 RMK A01 T03070143  RH  037%=      5-min Rain = 0
KAHS 120545Z 19007KT 31/14 A2994 RMK A01 T03070143  RH  037%=      5-min Rain = 0
KAHS 120546Z 19007KT 31/14 A2994 RMK A01 T03070143  RH  037%=      5-min Rain = 0
KAHS 120547Z 19008KT 31/14 A2994 RMK A01 T03060143  RH  037%=      5-min Rain = 0
KAHS 120548Z 19008KT 31/14 A2994 RMK A01 T03060143  RH  037%=      5-min Rain = 0
KAHS 120549Z 18008KT 31/14 A2994 RMK A01 T03060143  RH  037%=      5-min Rain = 0
KAHS 120550Z 19007KT 31/14 A2994 RMK A01 T03050143  RH  037%=      5-min Rain = 0
KAHS 120551Z 18008KT 31/14 A2994 RMK A01 T03060143  RH  037%=      5-min Rain = 0
KAHS 120552Z 18009KT 31/14 A2994 RMK A01 T03060142  RH  037%=      5-min Rain = 0
KAHS 120553Z 19008KT 31/14 A2994 RMK A01 T03060142  RH  037%=      5-min Rain = 0
KAHS 120554Z 19009KT 31/14 A2994 RMK A01 T03060142  RH  037%=      5-min Rain = 0
KAHS 120555Z 19008KT 31/14 A2994 RMK A01 T03070142  RH  037%=      5-min Rain = 0
KAHS 120556Z 19007KT 31/14 A2994 RMK A01 T03060142  RH  037%=      5-min Rain = 0
KAHS 120557Z 20007KT 31/14 A2994 RMK A01 T03050142  RH  037%=      5-min Rain = 0
KAHS 120558Z 19008KT 31/14 A2994 RMK A01 T03050143  RH  037%=      5-min Rain = 0
KAHS 120559Z 20007KT 31/14 A2994 RMK A01 T03050143  RH  037%=      5-min Rain = 0
KAHS 120600Z 20007KT 31/14 A2994 RMK A01 T03050143  RH  037%=      5-min Rain = 0
KAHS 120601Z 20007KT 30/14 A2994 RMK A01 T03040144  RH  038%=      5-min Rain = 0
KAHS 120602Z 20006KT 30/14 A2994 RMK A01 T03040143  RH  038%=      5-min Rain = 0
KAHS 120603Z 21007KT 30/14 A2994 RMK A01 T03040143  RH  037%=      5-min Rain = 0
KAHS 120604Z 21006KT 31/14 A2994 RMK A01 T03050143  RH  037%=      5-min Rain = 0
KAHS 120605Z 21004KT 30/14 A2994 RMK A01 T03040143  RH  037%=      5-min Rain = 0
KAHS 120606Z 22005KT 30/14 A2994 RMK A01 T03040142  RH  037%=      5-min Rain = 0
KAHS 120607Z 23005KT 30/14 A2995 RMK A01 T03030142  RH  037%=      5-min Rain = 0
KAHS 120608Z 24005KT 30/14 A2995 RMK A01 T03030142  RH  037%=      5-min Rain = 0
KAHS 120609Z 26005KT 30/14 A2995 RMK A01 T03030141  RH  037%=      5-min Rain = 0
KAHS 120610Z 27004KT 30/14 A2995 RMK A01 T03020141  RH  037%=      5-min Rain = 0
KAHS 120611Z 27005KT 30/14 A2996 RMK A01 T03010141  RH  038%=      5-min Rain = 0
KAHS 120612Z 28005KT 30/14 A2996 RMK A01 T03000140  RH  038%=      5-min Rain = 0
KAHS 120613Z 31006KT 30/14 A2996 RMK A01 T03000141  RH  038%=      5-min Rain = 0
KAHS 120614Z 33006KT 30/14 A2996 RMK A01 T02980141  RH  038%=      5-min Rain = 0
KAHS 120615Z 33006KT 30/14 A2996 RMK A01 T02970141  RH  039%=      5-min Rain = 0
KAHS 120616Z 34006KT 30/14 A2996 RMK A01 T02960140  RH  039%=      5-min Rain = 0
KAHS 120617Z 35005KT 30/14 A2996 RMK A01 T02950140  RH  039%=      5-min Rain = 0
KAHS 120618Z 35004KT 29/14 A2996 RMK A01 T02940140  RH  039%=      5-min Rain = 0
KAHS 120619Z 34004KT 29/14 A2996 RMK A01 T02930140  RH  039%=      5-min Rain = 0
KAHS 120620Z 34002KT 29/14 A2996 RMK A01 T02930140  RH  039%=      5-min Rain = 0
KAHS 120621Z 32001KT 29/14 A2996 RMK A01 T02930140  RH  039%=      5-min Rain = 0
KAHS 120622Z 26002KT 29/14 A2996 RMK A01 T02930139  RH  039%=      5-min Rain = 0
KAHS 120623Z 23001KT 29/14 A2996 RMK A01 T02930139  RH  039%=      5-min Rain = 0
KAHS 120624Z 21003KT 29/14 A2996 RMK A01 T02920139  RH  039%=      5-min Rain = 0
KAHS 120625Z 19003KT 29/14 A2995 RMK A01 T02920139  RH  039%=      5-min Rain = 0
KAHS 120626Z 20004KT 29/14 A2995 RMK A01 T02920140  RH  039%=      5-min Rain = 0
KAHS 120627Z 18004KT 29/14 A2995 RMK A01 T02910140  RH  040%=      5-min Rain = 0
KAHS 120628Z 19005KT 29/14 A2995 RMK A01 T02910140  RH  040%=      5-min Rain = 0
KAHS 120629Z 19005KT 29/14 A2995 RMK A01 T02910140  RH  040%=      5-min Rain = 0
KAHS 120630Z 19005KT 29/14 A2995 RMK A01 T02910140  RH  040%=      5-min Rain = 0
KAHS 120631Z 19005KT 29/14 A2995 RMK A01 T02900139  RH  040%=      5-min Rain = 0
KAHS 120632Z 20006KT 29/14 A2995 RMK A01 T02920138  RH  039%=      5-min Rain = 0
KAHS 120633Z 19005KT 29/14 A2995 RMK A01 T02940138  RH  038%=      5-min Rain = 0
KAHS 120634Z 20005KT 30/14 A2995 RMK A01 T02950138  RH  038%=      5-min Rain = 0
KAHS 120635Z 19005KT 30/14 A2995 RMK A01 T02950138  RH  038%=      5-min Rain = 0
KAHS 120636Z 21006KT 30/14 A2995 RMK A01 T02960138  RH  038%=      5-min Rain = 0
KAHS 120637Z 20006KT 30/14 A2995 RMK A01 T02970137  RH  037%=      5-min Rain = 0
KAHS 120638Z 20006KT 30/14 A2995 RMK A01 T02980137  RH  037%=      5-min Rain = 0
KAHS 120639Z 20006KT 30/14 A2995 RMK A01 T02980137  RH  037%=      5-min Rain = 0
KAHS 120640Z 20005KT 30/14 A2995 RMK A01 T02980137  RH  037%=      5-min Rain = 0
KAHS 120641Z 20006KT 30/14 A2995 RMK A01 T02980137  RH  037%=      5-min Rain = 0
KAHS 120642Z 21005KT 30/14 A2995 RMK A01 T02980137  RH  037%=      5-min Rain = 0
KAHS 120643Z 21005KT 30/14 A2995 RMK A01 T02980137  RH  037%=      5-min Rain = 0
KAHS 120644Z 20005KT 30/14 A2995 RMK A01 T02980137  RH  037%=      5-min Rain = 0
KAHS 120645Z 21005KT 30/14 A2995 RMK A01 T02970137  RH  038%=      5-min Rain = 0
KAHS 120646Z 20005KT 30/14 A2995 RMK A01 T02970137  RH  038%=      5-min Rain = 0
KAHS 120647Z 20005KT 30/14 A2995 RMK A01 T02960137  RH  038%=      5-min Rain = 0
KAHS 120648Z 19005KT 30/14 A2995 RMK A01 T02960137  RH  038%=      5-min Rain = 0
KAHS 120649Z 19005KT 30/14 A2995 RMK A01 T02960138  RH  038%=      5-min Rain = 0
KAHS 120650Z 19006KT 30/14 A2995 RMK A01 T02950138  RH  038%=      5-min Rain = 0
KAHS 120651Z 19006KT 29/14 A2995 RMK A01 T02940138  RH  038%=      5-min Rain = 0
KAHS 120652Z 19006KT 29/14 A2995 RMK A01 T02940138  RH  038%=      5-min Rain = 0
KAHS 120653Z 19006KT 29/14 A2995 RMK A01 T02940138  RH  038%=      5-min Rain = 0
KAHS 120654Z 19006KT 29/14 A2995 RMK A01 T02940138  RH  039%=      5-min Rain = 0
KAHS 120655Z 19006KT 29/14 A2995 RMK A01 T02930138  RH  039%=      5-min Rain = 0
KAHS 120656Z 19006KT 29/14 A2995 RMK A01 T02930138  RH  039%=      5-min Rain = 0
KAHS 120657Z 19006KT 29/14 A2995 RMK A01 T02930138  RH  039%=      5-min Rain = 0
KAHS 120658Z 19007KT 29/14 A2995 RMK A01 T02930138  RH  039%=      5-min Rain = 0
KAHS 120659Z 19006KT 29/14 A2995 RMK A01 T02930138  RH  039%=      5-min Rain = 0
KAHS 120700Z 19006KT 29/14 A2995 RMK A01 T02920139  RH  039%=      5-min Rain = 0
KAHS 120701Z 19006KT 29/14 A2995 RMK A01 T02920139  RH  039%=      5-min Rain = 0
KAHS 120702Z 19005KT 29/14 A2995 RMK A01 T02920140  RH  039%=      5-min Rain = 0
KAHS 120703Z 19005KT 29/14 A2995 RMK A01 T02910140  RH  040%=      5-min Rain = 0
KAHS 120704Z 20005KT 29/14 A2995 RMK A01 T02900141  RH  040%=      5-min Rain = 0
KAHS 120705Z 20005KT 29/14 A2995 RMK A01 T02900141  RH  040%=      5-min Rain = 0
KAHS 120706Z 20005KT 29/14 A2995 RMK A01 T02890142  RH  041%=      5-min Rain = 0
KAHS 120707Z 20004KT 29/14 A2995 RMK A01 T02890142  RH  041%=      5-min Rain = 0
KAHS 120708Z 20004KT 29/14 A2995 RMK A01 T02880143  RH  041%=      5-min Rain = 0
KAHS 120709Z 22003KT 29/14 A2995 RMK A01 T02880142  RH  041%=      5-min Rain = 0
KAHS 120710Z 23003KT 29/14 A2995 RMK A01 T02880141  RH  041%=      5-min Rain = 0
KAHS 120711Z 24003KT 29/14 A2995 RMK A01 T02870140  RH  040%=      5-min Rain = 0
KAHS 120712Z 25003KT 29/14 A2995 RMK A01 T02870139  RH  040%=      5-min Rain = 0
KAHS 120713Z 25003KT 29/14 A2995 RMK A01 T02860139  RH  040%=      5-min Rain = 0
KAHS 120714Z 25003KT 29/14 A2995 RMK A01 T02850139  RH  041%=      5-min Rain = 0
KAHS 120715Z 25003KT 29/14 A2996 RMK A01 T02850139  RH  041%=      5-min Rain = 0
KAHS 120716Z 25002KT 28/14 A2996 RMK A01 T02840139  RH  041%=      5-min Rain = 0
KAHS 120717Z 24003KT 28/14 A2996 RMK A01 T02830139  RH  041%=      5-min Rain = 0
KAHS 120718Z 24002KT 28/14 A2996 RMK A01 T02820139  RH  041%=      5-min Rain = 0
KAHS 120719Z 24002KT 28/14 A2996 RMK A01 T02820140  RH  042%=      5-min Rain = 0
KAHS 120720Z 25002KT 28/14 A2996 RMK A01 T02820140  RH  042%=      5-min Rain = 0
KAHS 120721Z 24002KT 28/14 A2996 RMK A01 T02820140  RH  042%=      5-min Rain = 0
KAHS 120722Z 24002KT 28/14 A2996 RMK A01 T02810141  RH  042%=      5-min Rain = 0
KAHS 120723Z 23003KT 28/14 A2996 RMK A01 T02810142  RH  043%=      5-min Rain = 0
KAHS 120724Z 22004KT 28/14 A2996 RMK A01 T02810142  RH  042%=      5-min Rain = 0
KAHS 120725Z 23004KT 28/14 A2996 RMK A01 T02820141  RH  042%=      5-min Rain = 0
KAHS 120726Z 23004KT 28/14 A2996 RMK A01 T02830143  RH  042%=      5-min Rain = 0
KAHS 120727Z 23005KT 28/14 A2996 RMK A01 T02830143  RH  042%=      5-min Rain = 0
KAHS 120728Z 23005KT 28/14 A2996 RMK A01 T02810143  RH  043%=      5-min Rain = 0
KAHS 120729Z 24004KT 28/14 A2996 RMK A01 T02800143  RH  043%=      5-min Rain = 0
KAHS 120730Z 24004KT 28/14 A2996 RMK A01 T02790143  RH  043%=      5-min Rain = 0
KAHS 120731Z 23005KT 28/14 A2996 RMK A01 T02780143  RH  044%=      5-min Rain = 0
KAHS 120732Z 23004KT 28/14 A2995 RMK A01 T02780144  RH  044%=      5-min Rain = 0
KAHS 120733Z 23005KT 28/14 A2995 RMK A01 T02770144  RH  044%=      5-min Rain = 0
KAHS 120734Z 23006KT 28/14 A2995 RMK A01 T02770144  RH  044%=      5-min Rain = 0
KAHS 120735Z 23006KT 28/14 A2995 RMK A01 T02760144  RH  044%=      5-min Rain = 0
KAHS 120736Z 23006KT 28/14 A2995 RMK A01 T02750144  RH  044%=      5-min Rain = 0
KAHS 120737Z 22007KT 28/14 A2995 RMK A01 T02750143  RH  044%=      5-min Rain = 0
KAHS 120738Z 22007KT 28/14 A2995 RMK A01 T02760143  RH  044%=      5-min Rain = 0
KAHS 120739Z 22006KT 28/14 A2995 RMK A01 T02760142  RH  044%=      5-min Rain = 0
KAHS 120740Z 21006KT 28/14 A2995 RMK A01 T02770142  RH  044%=      5-min Rain = 0
KAHS 120741Z 21006KT 28/14 A2995 RMK A01 T02780142  RH  043%=      5-min Rain = 0
KAHS 120742Z 21005KT 28/14 A2995 RMK A01 T02780141  RH  043%=      5-min Rain = 0
KAHS 120743Z 21005KT 28/14 A2995 RMK A01 T02790141  RH  043%=      5-min Rain = 0
KAHS 120744Z 20005KT 28/14 A2995 RMK A01 T02790141  RH  043%=      5-min Rain = 0
KAHS 120745Z 20005KT 28/14 A2995 RMK A01 T02800141  RH  043%=      5-min Rain = 0
KAHS 120746Z 21005KT 28/14 A2995 RMK A01 T02800141  RH  042%=      5-min Rain = 0
KAHS 120747Z 20005KT 28/14 A2995 RMK A01 T02800141  RH  043%=      5-min Rain = 0
KAHS 120748Z 20004KT 28/14 A2995 RMK A01 T02800141  RH  043%=      5-min Rain = 0
KAHS 120749Z 20004KT 28/14 A2995 RMK A01 T02790141  RH  043%=      5-min Rain = 0
KAHS 120750Z 19004KT 28/14 A2995 RMK A01 T02790141  RH  043%=      5-min Rain = 0
KAHS 120751Z 19003KT 28/14 A2995 RMK A01 T02790142  RH  043%=      5-min Rain = 0
KAHS 120752Z 19003KT 28/14 A2995 RMK A01 T02790142  RH  043%=      5-min Rain = 0
KAHS 120753Z 18003KT 28/14 A2995 RMK A01 T02780142  RH  043%=      5-min Rain = 0
KAHS 120754Z 18003KT 28/14 A2995 RMK A01 T02780143  RH  044%=      5-min Rain = 0
KAHS 120755Z 18003KT 28/14 A2995 RMK A01 T02780143  RH  044%=      5-min Rain = 0
KAHS 120756Z 18004KT 28/14 A2995 RMK A01 T02770143  RH  044%=      5-min Rain = 0
KAHS 120757Z 17004KT 28/14 A2995 RMK A01 T02770143  RH  044%=      5-min Rain = 0
KAHS 120758Z 17004KT 28/14 A2995 RMK A01 T02770143  RH  044%=      5-min Rain = 0
KAHS 120759Z 18005KT 28/14 A2995 RMK A01 T02770142  RH  044%=      5-min Rain = 0
KAHS 120800Z 18005KT 28/14 A2995 RMK A01 T02760142  RH  044%=      5-min Rain = 0
KAHS 120801Z 19005KT 28/14 A2995 RMK A01 T02750144  RH  044%=      5-min Rain = 0
KAHS 120802Z 18006KT 28/14 A2995 RMK A01 T02760144  RH  045%=      5-min Rain = 0
KAHS 120803Z 19006KT 28/14 A2995 RMK A01 T02750144  RH  045%=      5-min Rain = 0
KAHS 120804Z 19006KT 28/15 A2995 RMK A01 T02760145  RH  045%=      5-min Rain = 0
KAHS 120805Z 20006KT 28/15 A2995 RMK A01 T02760146  RH  045%=      5-min Rain = 0
KAHS 120806Z 20005KT 28/15 A2995 RMK A01 T02760146  RH  045%=      5-min Rain = 0
KAHS 120807Z 20005KT 28/15 A2995 RMK A01 T02760147  RH  045%=      5-min Rain = 0
KAHS 120808Z 20006KT 28/15 A2995 RMK A01 T02760148  RH  045%=      5-min Rain = 0
KAHS 120809Z 21006KT 28/15 A2995 RMK A01 T02760148  RH  046%=      5-min Rain = 0
KAHS 120810Z 20005KT 28/15 A2995 RMK A01 T02760149  RH  046%=      5-min Rain = 0
KAHS 120811Z 21006KT 28/15 A2995 RMK A01 T02750150  RH  046%=      5-min Rain = 0
KAHS 120812Z 20006KT 28/15 A2995 RMK A01 T02760150  RH  046%=      5-min Rain = 0
KAHS 120813Z 21006KT 28/15 A2995 RMK A01 T02760150  RH  046%=      5-min Rain = 0
KAHS 120814Z 21006KT 28/15 A2995 RMK A01 T02760149  RH  046%=      5-min Rain = 0
KAHS 120815Z 20005KT 28/15 A2995 RMK A01 T02760148  RH  045%=      5-min Rain = 0
KAHS 120816Z 20007KT 28/15 A2995 RMK A01 T02760146  RH  045%=      5-min Rain = 0
KAHS 120817Z 20006KT 28/15 A2995 RMK A01 T02770145  RH  044%=      5-min Rain = 0
KAHS 120818Z 20007KT 28/14 A2994 RMK A01 T02770144  RH  044%=      5-min Rain = 0
KAHS 120819Z 21008KT 28/14 A2994 RMK A01 T02780143  RH  044%=      5-min Rain = 0
KAHS 120820Z 21007KT 28/14 A2994 RMK A01 T02790142  RH  043%=      5-min Rain = 0
KAHS 120821Z 20007KT 28/14 A2994 RMK A01 T02810141  RH  042%=      5-min Rain = 0
KAHS 120822Z 20009KT 28/14 A2994 RMK A01 T02810141  RH  042%=      5-min Rain = 0
KAHS 120823Z 21008KT 28/14 A2994 RMK A01 T02830140  RH  042%=      5-min Rain = 0
KAHS 120824Z 21010KT 28/14 A2994 RMK A01 T02840140  RH  041%=      5-min Rain = 0
KAHS 120825Z 20009KT 29/14 A2994 RMK A01 T02850139  RH  041%=      5-min Rain = 0
KAHS 120826Z 21009KT 29/14 A2994 RMK A01 T02860139  RH  041%=      5-min Rain = 0
KAHS 120827Z 21009KT 29/14 A2994 RMK A01 T02860139  RH  041%=      5-min Rain = 0
KAHS 120828Z 21009KT 29/14 A2994 RMK A01 T02860139  RH  040%=      5-min Rain = 0
KAHS 120829Z 20010KT 29/14 A2993 RMK A01 T02870139  RH  040%=      5-min Rain = 0
KAHS 120830Z 20010KT 29/14 A2993 RMK A01 T02880139  RH  040%=      5-min Rain = 0
KAHS 120831Z 21011KT 29/14 A2993 RMK A01 T02880138  RH  040%=      5-min Rain = 0
KAHS 120832Z 20011KT 29/14 A2993 RMK A01 T02890138  RH  040%=      5-min Rain = 0
KAHS 120833Z 20010KT 29/14 A2993 RMK A01 T02900138  RH  040%=      5-min Rain = 0
KAHS 120834Z 20011KT 29/14 A2993 RMK A01 T02900139  RH  040%=      5-min Rain = 0
KAHS 120835Z 21010KT 29/14 A2993 RMK A01 T02900139  RH  040%=      5-min Rain = 0
KAHS 120836Z 21012KT 29/14 A2993 RMK A01 T02900139  RH  040%=      5-min Rain = 0
KAHS 120837Z 20010KT 29/14 A2993 RMK A01 T02910139  RH  039%=      5-min Rain = 0
KAHS 120838Z 20012KT 29/14 A2993 RMK A01 T02910139  RH  039%=      5-min Rain = 0
KAHS 120839Z 20010KT 29/14 A2993 RMK A01 T02920139  RH  039%=      5-min Rain = 0
KAHS 120840Z 20012KT 29/14 A2993 RMK A01 T02910139  RH  039%=      5-min Rain = 0
KAHS 120841Z 20009KT 29/14 A2993 RMK A01 T02920140  RH  039%=      5-min Rain = 0
KAHS 120842Z 20010G15KT 29/14 A2993 RMK A01 T02910140  RH  040%=      5-min Rain = 0
KAHS 120843Z 20008KT 29/14 A2993 RMK A01 T02910140  RH  040%=      5-min Rain = 0
KAHS 120844Z 20008KT 29/14 A2993 RMK A01 T02910140  RH  040%=      5-min Rain = 0
KAHS 120845Z 21009KT 29/14 A2993 RMK A01 T02900140  RH  040%=      5-min Rain = 0
KAHS 120846Z 21012KT 29/14 A2993 RMK A01 T02910141  RH  040%=      5-min Rain = 0
KAHS 120847Z 20010KT 29/14 A2993 RMK A01 T02920141  RH  040%=      5-min Rain = 0
KAHS 120848Z 20009KT 29/14 A2993 RMK A01 T02920141  RH  040%=      5-min Rain = 0
KAHS 120849Z 20011KT 29/14 A2993 RMK A01 T02920141  RH  040%=      5-min Rain = 0
KAHS 120850Z 20010KT 29/14 A2993 RMK A01 T02920141  RH  040%=      5-min Rain = 0
KAHS 120851Z 20010KT 29/14 A2993 RMK A01 T02920141  RH  040%=      5-min Rain = 0
KAHS 120852Z 19011G16KT 29/14 A2993 RMK A01 T02920142  RH  040%=      5-min Rain = 0
KAHS 120853Z 20012KT 29/14 A2993 RMK A01 T02940142  RH  039%=      5-min Rain = 0
KAHS 120854Z 20009KT 29/14 A2994 RMK A01 T02940142  RH  039%=      5-min Rain = 0
KAHS 120855Z 20012G17KT 29/14 A2994 RMK A01 T02940142  RH  039%=      5-min Rain = 0
KAHS 120856Z 20012G17KT 30/14 A2994 RMK A01 T02950142  RH  039%=      5-min Rain = 0
KAHS 120857Z 20011KT 30/14 A2994 RMK A01 T02950142  RH  039%=      5-min Rain = 0
KAHS 120858Z 20011KT 30/14 A2994 RMK A01 T02950142  RH  039%=      5-min Rain = 0
KAHS 120859Z 20012KT 30/14 A2994 RMK A01 T02950143  RH  039%=      5-min Rain = 0
KAHS 120900Z 21011G17KT 30/14 A2994 RMK A01 T02960142  RH  039%=      5-min Rain = 0
KAHS 120901Z 20009KT 30/14 A2994 RMK A01 T02950143  RH  039%=      5-min Rain = 0
KAHS 120902Z 21011KT 30/14 A2994 RMK A01 T02950143  RH  039%=      5-min Rain = 0
KAHS 120903Z 20011KT 30/14 A2994 RMK A01 T02950143  RH  039%=      5-min Rain = 0
KAHS 120904Z 21009KT 30/14 A2994 RMK A01 T02950143  RH  040%=      5-min Rain = 0
KAHS 120905Z 20010KT 30/14 A2994 RMK A01 T02950143  RH  040%=      5-min Rain = 0
KAHS 120906Z 21010KT 30/14 A2994 RMK A01 T02950143  RH  040%=      5-min Rain = 0
KAHS 120907Z 21010G16KT 30/14 A2994 RMK A01 T02950143  RH  040%=      5-min Rain = 0
KAHS 120908Z 21008KT 30/14 A2994 RMK A01 T02950143  RH  040%=      5-min Rain = 0
KAHS 120909Z 21012KT 29/14 A2994 RMK A01 T02940143  RH  040%=      5-min Rain = 0
KAHS 120910Z 21011KT 30/14 A2994 RMK A01 T02950144  RH  040%=      5-min Rain = 0
KAHS 120911Z 21011KT 30/14 A2994 RMK A01 T02950144  RH  040%=      5-min Rain = 0
KAHS 120912Z 20014G19KT 30/14 A2994 RMK A01 T02950144  RH  040%=      5-min Rain = 0
KAHS 120913Z 21011KT 30/14 A2994 RMK A01 T02950144  RH  040%=      5-min Rain = 0
KAHS 120914Z 20011KT 30/14 A2994 RMK A01 T02950144  RH  040%=      5-min Rain = 0
KAHS 120915Z 21015KT 30/14 A2994 RMK A01 T02950144  RH  040%=      5-min Rain = 0
KAHS 120916Z 21014G19KT 30/14 A2994 RMK A01 T02950144  RH  040%=      5-min Rain = 0
KAHS 120917Z 21014KT 30/14 A2994 RMK A01 T02960144  RH  040%=      5-min Rain = 0
KAHS 120918Z 21012KT 30/14 A2994 RMK A01 T02960144  RH  040%=      5-min Rain = 0
KAHS 120919Z 20014KT 30/15 A2994 RMK A01 T02950145  RH  040%=      5-min Rain = 0
KAHS 120920Z 21009KT 30/15 A2994 RMK A01 T02950145  RH  040%=      5-min Rain = 0
KAHS 120921Z 20014KT 29/15 A2994 RMK A01 T02940145  RH  040%=      5-min Rain = 0
KAHS 120922Z 21014G20KT 30/15 A2994 RMK A01 T02950145  RH  040%=      5-min Rain = 0
KAHS 120923Z 21013G20KT 30/15 A2994 RMK A01 T02950145  RH  040%=      5-min Rain = 0
KAHS 120924Z 21015KT 30/15 A2994 RMK A01 T02950145  RH  040%=      5-min Rain = 0
KAHS 120925Z 21012KT 30/15 A2994 RMK A01 T02950145  RH  040%=      5-min Rain = 0
KAHS 120926Z 21013G19KT 29/15 A2994 RMK A01 T02940145  RH  040%=      5-min Rain = 0
KAHS 120927Z 21013KT 29/15 A2994 RMK A01 T02940146  RH  040%=      5-min Rain = 0
KAHS 120928Z 20012KT 29/15 A2994 RMK A01 T02940146  RH  040%=      5-min Rain = 0
KAHS 120929Z 20013KT 29/15 A2994 RMK A01 T02930146  RH  041%=      5-min Rain = 0
KAHS 120930Z 21014KT 29/15 A2994 RMK A01 T02930146  RH  041%=      5-min Rain = 0
KAHS 120931Z 21013KT 29/15 A2994 RMK A01 T02930146  RH  041%=      5-min Rain = 0
KAHS 120932Z 20014KT 29/15 A2994 RMK A01 T02930147  RH  041%=      5-min Rain = 0
KAHS 120933Z 20012KT 29/15 A2994 RMK A01 T02930147  RH  041%=      5-min Rain = 0
KAHS 120934Z 21009KT 29/15 A2994 RMK A01 T02930147  RH  041%=      5-min Rain = 0
KAHS 120935Z 21012KT 29/15 A2995 RMK A01 T02920147  RH  041%=      5-min Rain = 0
KAHS 120936Z 20014KT 29/15 A2994 RMK A01 T02920147  RH  041%=      5-min Rain = 0
KAHS 120937Z 20013KT 29/15 A2994 RMK A01 T02920147  RH  041%=      5-min Rain = 0
KAHS 120938Z 20013G18KT 29/15 A2994 RMK A01 T02920147  RH  041%=      5-min Rain = 0
KAHS 120939Z 21011KT 29/15 A2994 RMK A01 T02920148  RH  041%=      5-min Rain = 0
KAHS 120940Z 21013G18KT 29/15 A2994 RMK A01 T02920148  RH  042%=      5-min Rain = 0
KAHS 120941Z 22015KT 29/15 A2994 RMK A01 T02920149  RH  042%=      5-min Rain = 0
KAHS 120942Z 21011KT 29/15 A2994 RMK A01 T02920149  RH  042%=      5-min Rain = 0
KAHS 120943Z 21013KT 29/15 A2994 RMK A01 T02920149  RH  042%=      5-min Rain = 0
KAHS 120944Z 21010KT 29/15 A2994 RMK A01 T02920149  RH  042%=      5-min Rain = 0
KAHS 120945Z 21014KT 29/15 A2994 RMK A01 T02910149  RH  042%=      5-min Rain = 0
KAHS 120946Z 20013KT 29/15 A2994 RMK A01 T02910150  RH  042%=      5-min Rain = 0
KAHS 120947Z 21011KT 29/15 A2994 RMK A01 T02910150  RH  042%=      5-min Rain = 0
KAHS 120948Z 21010G15KT 29/15 A2994 RMK A01 T02900150  RH  043%=      5-min Rain = 0
KAHS 120949Z 21011KT 29/15 A2994 RMK A01 T02900151  RH  043%=      5-min Rain = 0
KAHS 120950Z 21011KT 29/15 A2994 RMK A01 T02900151  RH  043%=      5-min Rain = 0
KAHS 120951Z 21013G18KT 29/15 A2994 RMK A01 T02900151  RH  043%=      5-min Rain = 0
KAHS 120952Z 21014KT 29/15 A2994 RMK A01 T02900152  RH  043%=      5-min Rain = 0
KAHS 120953Z 21011KT 29/15 A2994 RMK A01 T02900152  RH  043%=      5-min Rain = 0
KAHS 120954Z 21009KT 29/15 A2994 RMK A01 T02890152  RH  043%=      5-min Rain = 0
KAHS 120955Z 21012KT 29/15 A2994 RMK A01 T02890153  RH  044%=      5-min Rain = 0
KAHS 120956Z 21010KT 29/15 A2994 RMK A01 T02890153  RH  044%=      5-min Rain = 0
KAHS 120957Z 21013KT 29/15 A2994 RMK A01 T02890153  RH  044%=      5-min Rain = 0
KAHS 120958Z 21011KT 29/15 A2994 RMK A01 T02890153  RH  044%=      5-min Rain = 0
KAHS 120959Z 20010KT 29/15 A2994 RMK A01 T02880153  RH  044%=      5-min Rain = 0
KAHS 121000Z 20010G17KT 29/15 A2994 RMK A01 T02880154  RH  044%=      5-min Rain = 0
KAHS 121001Z 20014KT 29/15 A2994 RMK A01 T02880154  RH  044%=      5-min Rain = 0
KAHS 121002Z 20010G15KT 29/15 A2995 RMK A01 T02880154  RH  044%=      5-min Rain = 0
KAHS 121003Z 21011KT 29/15 A2995 RMK A01 T02880154  RH  044%=      5-min Rain = 0
KAHS 121004Z 21012KT 29/15 A2995 RMK A01 T02880154  RH  044%=      5-min Rain = 0
KAHS 121005Z 21011KT 29/15 A2995 RMK A01 T02880154  RH  044%=      5-min Rain = 0
KAHS 121006Z 21012KT 29/15 A2995 RMK A01 T02880154  RH  044%=      5-min Rain = 0
KAHS 121007Z 21011KT 29/15 A2995 RMK A01 T02870154  RH  044%=      5-min Rain = 0
KAHS 121008Z 21012KT 29/15 A2995 RMK A01 T02870154  RH  045%=      5-min Rain = 0
KAHS 121009Z 20012KT 29/16 A2995 RMK A01 T02870155  RH  044%=      5-min Rain = 0
KAHS 121010Z 21011KT 29/16 A2995 RMK A01 T02870155  RH  044%=      5-min Rain = 0
KAHS 121011Z 21010KT 29/16 A2995 RMK A01 T02870155  RH  045%=      5-min Rain = 0
KAHS 121012Z 21008KT 29/16 A2995 RMK A01 T02860155  RH  045%=      5-min Rain = 0
KAHS 121013Z 21009KT 29/16 A2995 RMK A01 T02860155  RH  045%=      5-min Rain = 0
KAHS 121014Z 21009KT 29/16 A2995 RMK A01 T02850155  RH  045%=      5-min Rain = 0
KAHS 121015Z 21009KT 29/16 A2995 RMK A01 T02850155  RH  045%=      5-min Rain = 0
KAHS 121016Z 21009KT 29/16 A2995 RMK A01 T02850155  RH  045%=      5-min Rain = 0
KAHS 121017Z 21009KT 29/16 A2995 RMK A01 T02850155  RH  045%=      5-min Rain = 0
KAHS 121018Z 21009KT 28/16 A2995 RMK A01 T02840155  RH  046%=      5-min Rain = 0
KAHS 121019Z 22010KT 28/16 A2995 RMK A01 T02840156  RH  046%=      5-min Rain = 0
KAHS 121020Z 21010KT 28/16 A2995 RMK A01 T02840156  RH  046%=      5-min Rain = 0
KAHS 121021Z 21010KT 28/16 A2995 RMK A01 T02840156  RH  046%=      5-min Rain = 0
KAHS 121022Z 21009KT 28/16 A2995 RMK A01 T02840156  RH  046%=      5-min Rain = 0
KAHS 121023Z 21008KT 28/16 A2995 RMK A01 T02830156  RH  046%=      5-min Rain = 0
KAHS 121024Z 22008KT 28/16 A2995 RMK A01 T02830156  RH  046%=      5-min Rain = 0
KAHS 121025Z 22009KT 28/16 A2995 RMK A01 T02830157  RH  046%=      5-min Rain = 0
KAHS 121026Z 22007KT 28/16 A2995 RMK A01 T02830157  RH  046%=      5-min Rain = 0
KAHS 121027Z 21008KT 28/16 A2995 RMK A01 T02830157  RH  046%=      5-min Rain = 0
KAHS 121028Z 22008KT 28/16 A2995 RMK A01 T02820158  RH  047%=      5-min Rain = 0
KAHS 121029Z 22009KT 28/16 A2995 RMK A01 T02820159  RH  047%=      5-min Rain = 0
KAHS 121030Z 22009KT 28/16 A2995 RMK A01 T02820159  RH  047%=      5-min Rain = 0
KAHS 121031Z 22010KT 28/16 A2995 RMK A01 T02830158  RH  047%=      5-min Rain = 0
KAHS 121032Z 22009KT 28/16 A2995 RMK A01 T02830159  RH  047%=      5-min Rain = 0
KAHS 121033Z 22010KT 28/16 A2995 RMK A01 T02830159  RH  047%=      5-min Rain = 0
KAHS 121034Z 22011KT 28/16 A2995 RMK A01 T02830158  RH  047%=      5-min Rain = 0
KAHS 121035Z 22011KT 28/16 A2995 RMK A01 T02830158  RH  047%=      5-min Rain = 0
KAHS 121036Z 22010KT 28/16 A2995 RMK A01 T02830158  RH  047%=      5-min Rain = 0
KAHS 121037Z 21010KT 28/16 A2995 RMK A01 T02830158  RH  047%=      5-min Rain = 0
KAHS 121038Z 22007KT 28/16 A2995 RMK A01 T02820158  RH  047%=      5-min Rain = 0
KAHS 121039Z 22007KT 28/16 A2995 RMK A01 T02810158  RH  047%=      5-min Rain = 0
KAHS 121040Z 22010KT 28/16 A2995 RMK A01 T02810159  RH  047%=      5-min Rain = 0
KAHS 121041Z 22009KT 28/16 A2995 RMK A01 T02820158  RH  047%=      5-min Rain = 0
KAHS 121042Z 21010KT 28/16 A2995 RMK A01 T02820158  RH  047%=      5-min Rain = 0
KAHS 121043Z 21009KT 28/16 A2995 RMK A01 T02820158  RH  047%=      5-min Rain = 0
KAHS 121044Z 22009KT 28/16 A2995 RMK A01 T02820158  RH  047%=      5-min Rain = 0
KAHS 121045Z 21009KT 28/16 A2995 RMK A01 T02820158  RH  047%=      5-min Rain = 0
KAHS 121046Z 22009KT 28/16 A2995 RMK A01 T02820158  RH  047%=      5-min Rain = 0
KAHS 121047Z 22008KT 28/16 A2995 RMK A01 T02820158  RH  047%=      5-min Rain = 0
KAHS 121048Z 22008KT 28/16 A2996 RMK A01 T02810158  RH  047%=      5-min Rain = 0
KAHS 121049Z 22010KT 28/16 A2995 RMK A01 T02800158  RH  047%=      5-min Rain = 0
KAHS 121050Z 22008KT 28/16 A2996 RMK A01 T02810159  RH  047%=      5-min Rain = 0
KAHS 121051Z 21008KT 28/16 A2996 RMK A01 T02810159  RH  048%=      5-min Rain = 0
KAHS 121052Z 22009KT 28/16 A2996 RMK A01 T02800159  RH  048%=      5-min Rain = 0
KAHS 121053Z 22007KT 28/16 A2996 RMK A01 T02800159  RH  048%=      5-min Rain = 0
KAHS 121054Z 22008KT 28/16 A2996 RMK A01 T02790159  RH  048%=      5-min Rain = 0
KAHS 121055Z 22007KT 28/16 A2996 RMK A01 T02790160  RH  048%=      5-min Rain = 0
KAHS 121056Z 21008KT 28/16 A2996 RMK A01 T02790160  RH  048%=      5-min Rain = 0
KAHS 121057Z 21007KT 28/16 A2996 RMK A01 T02790160  RH  048%=      5-min Rain = 0
KAHS 121058Z 21007KT 28/16 A2996 RMK A01 T02780160  RH  048%=      5-min Rain = 0
KAHS 121059Z 21009KT 28/16 A2996 RMK A01 T02780159  RH  048%=      5-min Rain = 0
KAHS 121100Z 21009KT 28/16 A2996 RMK A01 T02780159  RH  048%=      5-min Rain = 0
KAHS 121101Z 21010KT 28/16 A2996 RMK A01 T02790159  RH  048%=      5-min Rain = 0
KAHS 121102Z 21009KT 28/16 A2996 RMK A01 T02790159  RH  048%=      5-min Rain = 0
KAHS 121103Z 21009KT 28/16 A2996 RMK A01 T02800159  RH  048%=      5-min Rain = 0
KAHS 121104Z 20007KT 28/16 A2996 RMK A01 T02790159  RH  048%=      5-min Rain = 0
KAHS 121105Z 21008KT 28/16 A2996 RMK A01 T02780158  RH  048%=      5-min Rain = 0
KAHS 121106Z 22007KT 28/16 A2996 RMK A01 T02770159  RH  048%=      5-min Rain = 0
KAHS 121107Z 21009KT 28/16 A2996 RMK A01 T02770159  RH  049%=      5-min Rain = 0
KAHS 121108Z 21009KT 28/16 A2996 RMK A01 T02770159  RH  048%=      5-min Rain = 0
KAHS 121109Z 21009KT 28/16 A2996 RMK A01 T02770158  RH  048%=      5-min Rain = 0
KAHS 121110Z 21010KT 28/16 A2996 RMK A01 T02770158  RH  049%=      5-min Rain = 0
KAHS 121111Z 21011KT 28/16 A2996 RMK A01 T02770158  RH  048%=      5-min Rain = 0
KAHS 121112Z 21010KT 28/16 A2996 RMK A01 T02770158  RH  048%=      5-min Rain = 0
KAHS 121113Z 21009KT 28/16 A2996 RMK A01 T02780158  RH  048%=      5-min Rain = 0
KAHS 121114Z 21011KT 28/16 A2996 RMK A01 T02780158  RH  048%=      5-min Rain = 0
KAHS 121115Z 21009G15KT 28/16 A2996 RMK A01 T02780158  RH  048%=      5-min Rain = 0
KAHS 121116Z 21008KT 28/16 A2996 RMK A01 T02770159  RH  048%=      5-min Rain = 0
KAHS 121117Z 20010KT 28/16 A2996 RMK A01 T02770159  RH  048%=      5-min Rain = 0
KAHS 121118Z 20009KT 28/16 A2996 RMK A01 T02770159  RH  048%=      5-min Rain = 0
KAHS 121119Z 20011KT 28/16 A2996 RMK A01 T02770159  RH  049%=      5-min Rain = 0
KAHS 121120Z 21010KT 28/16 A2996 RMK A01 T02780159  RH  048%=      5-min Rain = 0
KAHS 121121Z 20008KT 28/16 A2996 RMK A01 T02780159  RH  049%=      5-min Rain = 0
KAHS 121122Z 20009KT 28/16 A2996 RMK A01 T02770159  RH  049%=      5-min Rain = 0
KAHS 121123Z 20009KT 28/16 A2996 RMK A01 T02770159  RH  049%=      5-min Rain = 0
KAHS 121124Z 20009KT 28/16 A2996 RMK A01 T02770159  RH  049%=      5-min Rain = 0
KAHS 121125Z 21010KT 28/16 A2996 RMK A01 T02760159  RH  049%=      5-min Rain = 0
KAHS 121126Z 20009KT 28/16 A2996 RMK A01 T02760159  RH  049%=      5-min Rain = 0
KAHS 121127Z 20011KT 28/16 A2996 RMK A01 T02760159  RH  049%=      5-min Rain = 0
KAHS 121128Z 21009KT 28/16 A2996 RMK A01 T02770159  RH  049%=      5-min Rain = 0
KAHS 121129Z 20011KT 28/16 A2996 RMK A01 T02770159  RH  049%=      5-min Rain = 0
KAHS 121130Z 20010KT 28/16 A2996 RMK A01 T02770159  RH  049%=      5-min Rain = 0
KAHS 121131Z 20009KT 28/16 A2996 RMK A01 T02760159  RH  049%=      5-min Rain = 0
KAHS 121132Z 20010KT 28/16 A2996 RMK A01 T02750159  RH  049%=      5-min Rain = 0
KAHS 121133Z 20009KT 28/16 A2996 RMK A01 T02750159  RH  049%=      5-min Rain = 0
KAHS 121134Z 20008KT 28/16 A2996 RMK A01 T02750159  RH  049%=      5-min Rain = 0
KAHS 121135Z 20008KT 27/16 A2996 RMK A01 T02740159  RH  050%=      5-min Rain = 0
KAHS 121136Z 20009KT 27/16 A2996 RMK A01 T02730159  RH  050%=      5-min Rain = 0
KAHS 121137Z 20008KT 27/16 A2996 RMK A01 T02730159  RH  050%=      5-min Rain = 0
KAHS 121138Z 20009KT 27/16 A2996 RMK A01 T02730159  RH  050%=      5-min Rain = 0
KAHS 121139Z 20008KT 27/16 A2996 RMK A01 T02730159  RH  050%=      5-min Rain = 0
KAHS 121140Z 20011KT 27/16 A2996 RMK A01 T02730159  RH  050%=      5-min Rain = 0
KAHS 121141Z 21008KT 27/16 A2996 RMK A01 T02740160  RH  050%=      5-min Rain = 0
KAHS 121142Z 20007KT 27/16 A2996 RMK A01 T02740159  RH  050%=      5-min Rain = 0
KAHS 121143Z 20009KT 27/16 A2996 RMK A01 T02730159  RH  050%=      5-min Rain = 0
KAHS 121144Z 20008KT 27/16 A2996 RMK A01 T02730160  RH  050%=      5-min Rain = 0
KAHS 121145Z 21008KT 27/16 A2996 RMK A01 T02720159  RH  050%=      5-min Rain = 0
KAHS 121146Z 20010KT 27/16 A2996 RMK A01 T02720160  RH  050%=      5-min Rain = 0
KAHS 121147Z 20008KT 27/16 A2996 RMK A01 T02720160  RH  050%=      5-min Rain = 0
KAHS 121148Z 20010KT 27/16 A2996 RMK A01 T02720160  RH  050%=      5-min Rain = 0
KAHS 121149Z 20008KT 27/16 A2997 RMK A01 T02720160  RH  050%=      5-min Rain = 0
KAHS 121150Z 21008KT 27/16 A2996 RMK A01 T02720160  RH  050%=      5-min Rain = 0
KAHS 121151Z 21007KT 27/16 A2997 RMK A01 T02720160  RH  050%=      5-min Rain = 0
KAHS 121152Z 21008KT 27/16 A2997 RMK A01 T02720161  RH  050%=      5-min Rain = 0
KAHS 121153Z 21007KT 27/16 A2997 RMK A01 T02730161  RH  051%=      5-min Rain = 0
KAHS 121154Z 21008KT 27/16 A2997 RMK A01 T02730162  RH  051%=      5-min Rain = 0
KAHS 121155Z 21008KT 27/16 A2997 RMK A01 T02730162  RH  051%=      5-min Rain = 0
KAHS 121156Z 21007KT 27/16 A2997 RMK A01 T02730162  RH  051%=      5-min Rain = 0
KAHS 121157Z 21006KT 27/16 A2997 RMK A01 T02720162  RH  051%=      5-min Rain = 0
KAHS 121158Z 21006KT 27/16 A2997 RMK A01 T02720162  RH  051%=      5-min Rain = 0
KAHS 121159Z 21006KT 27/16 A2997 RMK A01 T02710162  RH  051%=      5-min Rain = 0
KAHS 121200Z 21007KT 27/16 A2997 RMK A01 T02710163  RH  052%=      5-min Rain = 0
KAHS 121201Z 21007KT 27/16 A2997 RMK A01 T02700162  RH  052%=      5-min Rain = 0
KAHS 121202Z 21008KT 27/16 A2997 RMK A01 T02710163  RH  052%=      5-min Rain = 0
KAHS 121203Z 21007KT 27/16 A2997 RMK A01 T02710162  RH  051%=      5-min Rain = 0
KAHS 121204Z 21008KT 27/16 A2997 RMK A01 T02710163  RH  051%=      5-min Rain = 0
KAHS 121205Z 20006KT 27/16 A2997 RMK A01 T02710163  RH  052%=      5-min Rain = 0
KAHS 121206Z 21007KT 27/16 A2997 RMK A01 T02710163  RH  052%=      5-min Rain = 0
KAHS 121207Z 21007KT 27/16 A2997 RMK A01 T02710163  RH  052%=      5-min Rain = 0
KAHS 121208Z 21007KT 27/16 A2997 RMK A01 T02710163  RH  052%=      5-min Rain = 0
KAHS 121209Z 21006G11KT 27/16 A2997 RMK A01 T02710163  RH  052%=      5-min Rain = 0
KAHS 121210Z 22007KT 27/16 A2997 RMK A01 T02710163  RH  052%=      5-min Rain = 0
KAHS 121211Z 21006KT 27/16 A2997 RMK A01 T02710163  RH  052%=      5-min Rain = 0
KAHS 121212Z 21006KT 27/16 A2997 RMK A01 T02710163  RH  052%=      5-min Rain = 0
KAHS 121213Z 21007KT 27/16 A2997 RMK A01 T02710163  RH  052%=      5-min Rain = 0
KAHS 121214Z 22006KT 27/16 A2997 RMK A01 T02710163  RH  052%=      5-min Rain = 0
KAHS 121215Z 22006KT 27/16 A2997 RMK A01 T02720163  RH  051%=      5-min Rain = 0
KAHS 121216Z 22007KT 27/16 A2997 RMK A01 T02720163  RH  051%=      5-min Rain = 0
KAHS 121217Z 21007KT 27/16 A2997 RMK A01 T02720163  RH  051%=      5-min Rain = 0
KAHS 121218Z 21005KT 27/16 A2997 RMK A01 T02730163  RH  051%=      5-min Rain = 0
KAHS 121219Z 22005KT 27/16 A2997 RMK A01 T02730163  RH  051%=      5-min Rain = 0
KAHS 121220Z 21004KT 27/16 A2998 RMK A01 T02720164  RH  051%=      5-min Rain = 0
KAHS 121221Z 21007KT 27/16 A2998 RMK A01 T02720164  RH  052%=      5-min Rain = 0
KAHS 121222Z 21005KT 27/16 A2998 RMK A01 T02720164  RH  052%=      5-min Rain = 0
KAHS 121223Z 22005KT 27/16 A2998 RMK A01 T02720164  RH  052%=      5-min Rain = 0
KAHS 121224Z 21005KT 27/16 A2997 RMK A01 T02720164  RH  052%=      5-min Rain = 0
KAHS 121225Z 22004KT 27/16 A2998 RMK A01 T02720164  RH  052%=      5-min Rain = 0
KAHS 121226Z 22007KT 27/17 A2997 RMK A01 T02710165  RH  052%=      5-min Rain = 0
KAHS 121227Z 22009KT 27/17 A2998 RMK A01 T02720165  RH  052%=      5-min Rain = 0
KAHS 121228Z 22008KT 27/17 A2998 RMK A01 T02730165  RH  052%=      5-min Rain = 0
KAHS 121229Z 22008KT 27/17 A2998 RMK A01 T02740165  RH  051%=      5-min Rain = 0
KAHS 121230Z 21008KT 27/17 A2998 RMK A01 T02740165  RH  051%=      5-min Rain = 0
KAHS 121231Z 21007KT 27/17 A2998 RMK A01 T02740165  RH  051%=      5-min Rain = 0
KAHS 121232Z 22008KT 28/17 A2998 RMK A01 T02750165  RH  051%=      5-min Rain = 0
KAHS 121233Z 22006KT 28/17 A2998 RMK A01 T02750165  RH  051%=      5-min Rain = 0
KAHS 121234Z 21009KT 28/17 A2998 RMK A01 T02750165  RH  051%=      5-min Rain = 0
KAHS 121235Z 21007KT 27/17 A2998 RMK A01 T02740165  RH  051%=      5-min Rain = 0
KAHS 121236Z 22007KT 27/17 A2998 RMK A01 T02740166  RH  051%=      5-min Rain = 0
KAHS 121237Z 22008KT 28/17 A2998 RMK A01 T02750166  RH  051%=      5-min Rain = 0
KAHS 121238Z 21007KT 28/17 A2998 RMK A01 T02750165  RH  051%=      5-min Rain = 0
KAHS 121239Z 22006KT 27/17 A2998 RMK A01 T02740165  RH  051%=      5-min Rain = 0
KAHS 121240Z 23007KT 28/17 A2998 RMK A01 T02750165  RH  051%=      5-min Rain = 0
KAHS 121241Z 22007KT 28/17 A2998 RMK A01 T02750165  RH  051%=      5-min Rain = 0
KAHS 121242Z 22006KT 27/17 A2998 RMK A01 T02740166  RH  051%=      5-min Rain = 0
KAHS 121243Z 22006KT 28/17 A2998 RMK A01 T02750166  RH  051%=      5-min Rain = 0
KAHS 121244Z 22006KT 27/17 A2998 RMK A01 T02740166  RH  051%=      5-min Rain = 0
KAHS 121245Z 22009KT 27/17 A2998 RMK A01 T02740166  RH  051%=      5-min Rain = 0
KAHS 121246Z 23007KT 28/17 A2998 RMK A01 T02750166  RH  051%=      5-min Rain = 0
KAHS 121247Z 22006KT 28/17 A2998 RMK A01 T02750166  RH  051%=      5-min Rain = 0
KAHS 121248Z 21005KT 28/17 A2998 RMK A01 T02760167  RH  051%=      5-min Rain = 0
KAHS 121249Z 22007KT 28/17 A2998 RMK A01 T02760167  RH  051%=      5-min Rain = 0
KAHS 121250Z 22006KT 28/17 A2998 RMK A01 T02760167  RH  051%=      5-min Rain = 0
KAHS 121251Z 21008KT 28/17 A2998 RMK A01 T02760166  RH  051%=      5-min Rain = 0
KAHS 121252Z 22007KT 28/17 A2998 RMK A01 T02760166  RH  051%=      5-min Rain = 0
KAHS 121253Z 22007KT 28/17 A2998 RMK A01 T02770166  RH  051%=      5-min Rain = 0
KAHS 121254Z 23007KT 28/17 A2998 RMK A01 T02760166  RH  051%=      5-min Rain = 0
KAHS 121255Z 22007KT 28/17 A2998 RMK A01 T02760167  RH  051%=      5-min Rain = 0
KAHS 121256Z 21007KT 28/17 A2998 RMK A01 T02760167  RH  051%=      5-min Rain = 0
KAHS 121257Z 21008KT 28/17 A2998 RMK A01 T02760166  RH  051%=      5-min Rain = 0
KAHS 121258Z 21008KT 28/17 A2998 RMK A01 T02760166  RH  051%=      5-min Rain = 0
KAHS 121259Z 20005KT 28/17 A2998 RMK A01 T02770166  RH  051%=      5-min Rain = 0
KAHS 121300Z 21008KT 28/17 A2998 RMK A01 T02770166  RH  051%=      5-min Rain = 0
KAHS 121301Z 23006KT 28/17 A2998 RMK A01 T02770167  RH  051%=      5-min Rain = 0
KAHS 121302Z 23007KT 28/17 A2998 RMK A01 T02770167  RH  051%=      5-min Rain = 0
KAHS 121303Z 22007KT 28/17 A2998 RMK A01 T02770167  RH  051%=      5-min Rain = 0
KAHS 121304Z 21009KT 28/17 A2998 RMK A01 T02780167  RH  051%=      5-min Rain = 0
KAHS 121305Z 22007KT 28/17 A2998 RMK A01 T02780168  RH  051%=      5-min Rain = 0
KAHS 121306Z 22007KT 28/17 A2998 RMK A01 T02780168  RH  051%=      5-min Rain = 0
KAHS 121307Z 22007KT 28/17 A2998 RMK A01 T02780168  RH  051%=      5-min Rain = 0
KAHS 121308Z 22009KT 28/17 A2998 RMK A01 T02790168  RH  051%=      5-min Rain = 0
KAHS 121309Z 22008KT 28/17 A2998 RMK A01 T02790169  RH  051%=      5-min Rain = 0
KAHS 121310Z 21010KT 28/17 A2998 RMK A01 T02790169  RH  051%=      5-min Rain = 0
KAHS 121311Z 21009G14KT 28/17 A2998 RMK A01 T02790169  RH  051%=      5-min Rain = 0
KAHS 121312Z 21011KT 28/17 A2998 RMK A01 T02790169  RH  051%=      5-min Rain = 0
KAHS 121313Z 21010KT 28/17 A2998 RMK A01 T02790169  RH  051%=      5-min Rain = 0
KAHS 121314Z 22009KT 28/17 A2998 RMK A01 T02800169  RH  051%=      5-min Rain = 0
KAHS 121315Z 21008KT 28/17 A2998 RMK A01 T02800169  RH  051%=      5-min Rain = 0
KAHS 121316Z 21008KT 28/17 A2998 RMK A01 T02800170  RH  051%=      5-min Rain = 0
KAHS 121317Z 21009KT 28/17 A2998 RMK A01 T02810170  RH  051%=      5-min Rain = 0
KAHS 121318Z 21009KT 28/17 A2998 RMK A01 T02800170  RH  051%=      5-min Rain = 0
KAHS 121319Z 21012KT 28/17 A2998 RMK A01 T02810170  RH  051%=      5-min Rain = 0
KAHS 121320Z 22010KT 28/17 A2998 RMK A01 T02810171  RH  051%=      5-min Rain = 0
KAHS 121321Z 22007KT 28/17 A2998 RMK A01 T02810171  RH  051%=      5-min Rain = 0
KAHS 121322Z 22011KT 28/17 A2998 RMK A01 T02810171  RH  051%=      5-min Rain = 0
KAHS 121323Z 21009KT 28/17 A2998 RMK A01 T02810171  RH  051%=      5-min Rain = 0
KAHS 121324Z 21010KT 28/17 A2998 RMK A01 T02810171  RH  051%=      5-min Rain = 0
KAHS 121325Z 21009KT 28/17 A2998 RMK A01 T02810171  RH  051%=      5-min Rain = 0
KAHS 121326Z 21009KT 28/17 A2998 RMK A01 T02810171  RH  051%=      5-min Rain = 0
KAHS 121327Z 22009KT 28/17 A2998 RMK A01 T02820171  RH  051%=      5-min Rain = 0
KAHS 121328Z 22009KT 28/17 A2998 RMK A01 T02820171  RH  051%=      5-min Rain = 0
KAHS 121329Z 22011KT 28/17 A2998 RMK A01 T02820171  RH  051%=      5-min Rain = 0
KAHS 121330Z 21009KT 28/17 A2998 RMK A01 T02830171  RH  051%=      5-min Rain = 0
KAHS 121331Z 21009KT 28/17 A2998 RMK A01 T02820171  RH  051%=      5-min Rain = 0
KAHS 121332Z 22008KT 28/17 A2998 RMK A01 T02830172  RH  051%=      5-min Rain = 0
KAHS 121333Z 21007KT 28/17 A2999 RMK A01 T02830172  RH  051%=      5-min Rain = 0
KAHS 121334Z 21008KT 28/17 A2999 RMK A01 T02840172  RH  051%=      5-min Rain = 0
KAHS 121335Z 21011KT 28/17 A2999 RMK A01 T02840173  RH  051%=      5-min Rain = 0
KAHS 121336Z 23009KT 28/17 A2999 RMK A01 T02840173  RH  051%=      5-min Rain = 0
KAHS 121337Z 22009KT 28/17 A2999 RMK A01 T02840173  RH  051%=      5-min Rain = 0
KAHS 121338Z 22010KT 28/17 A2999 RMK A01 T02840174  RH  051%=      5-min Rain = 0
KAHS 121339Z 22009KT 28/17 A2999 RMK A01 T02840174  RH  051%=      5-min Rain = 0
KAHS 121340Z 21009KT 29/17 A2999 RMK A01 T02850174  RH  051%=      5-min Rain = 0
KAHS 121341Z 22008KT 29/17 A2999 RMK A01 T02850174  RH  051%=      5-min Rain = 0
KAHS 121342Z 23010G15KT 29/17 A2999 RMK A01 T02850174  RH  051%=      5-min Rain = 0
KAHS 121343Z 22009KT 29/17 A2999 RMK A01 T02850174  RH  051%=      5-min Rain = 0
KAHS 121344Z 22007KT 29/18 A2999 RMK A01 T02860175  RH  051%=      5-min Rain = 0
KAHS 121345Z 22009KT 29/18 A2999 RMK A01 T02860175  RH  051%=      5-min Rain = 0
KAHS 121346Z 21010KT 29/18 A2999 RMK A01 T02860175  RH  051%=      5-min Rain = 0
KAHS 121347Z 22008KT 29/18 A2999 RMK A01 T02860175  RH  051%=      5-min Rain = 0
KAHS 121348Z 22009KT 29/18 A2999 RMK A01 T02860175  RH  051%=      5-min Rain = 0
KAHS 121349Z 22012KT 29/18 A2999 RMK A01 T02860175  RH  051%=      5-min Rain = 0
KAHS 121350Z 23009KT 29/18 A2999 RMK A01 T02850176  RH  051%=      5-min Rain = 0
KAHS 121351Z 22009KT 29/18 A2999 RMK A01 T02870176  RH  051%=      5-min Rain = 0
KAHS 121352Z 23012KT 29/18 A2999 RMK A01 T02870176  RH  051%=      5-min Rain = 0
KAHS 121353Z 22013KT 29/18 A2999 RMK A01 T02850175  RH  051%=      5-min Rain = 0
KAHS 121354Z 22013KT 29/18 A2999 RMK A01 T02850176  RH  052%=      5-min Rain = 0
KAHS 121355Z 22011KT 29/18 A2999 RMK A01 T02850175  RH  051%=      5-min Rain = 0
KAHS 121356Z 21008KT 29/18 A2999 RMK A01 T02850176  RH  052%=      5-min Rain = 0
KAHS 121357Z 21007G12KT 29/18 A2999 RMK A01 T02870177  RH  051%=      5-min Rain = 0
KAHS 121358Z 21010KT 29/18 A2999 RMK A01 T02880177  RH  051%=      5-min Rain = 0
KAHS 121359Z 21010KT 29/18 A2999 RMK A01 T02880177  RH  051%=      5-min Rain = 0
KAHS 121400Z 21008KT 29/18 A2998 RMK A01 T02870177  RH  051%=      5-min Rain = 0
KAHS 121401Z 21009KT 29/18 A2999 RMK A01 T02880178  RH  051%=      5-min Rain = 0
KAHS 121402Z 21010KT 29/18 A2998 RMK A01 T02880177  RH  051%=      5-min Rain = 0
KAHS 121403Z 21009KT 29/18 A2998 RMK A01 T02880178  RH  051%=      5-min Rain = 0
KAHS 121404Z 21010KT 29/18 A2998 RMK A01 T02890178  RH  051%=      5-min Rain = 0
KAHS 121405Z 22011KT 29/18 A2998 RMK A01 T02890178  RH  051%=      5-min Rain = 0
KAHS 121406Z 21009KT 29/18 A2998 RMK A01 T02880178  RH  051%=      5-min Rain = 0
KAHS 121407Z 22008KT 29/18 A2998 RMK A01 T02890178  RH  051%=      5-min Rain = 0
KAHS 121408Z 21007KT 29/18 A2998 RMK A01 T02900179  RH  051%=      5-min Rain = 0
KAHS 121409Z 23008KT 29/18 A2998 RMK A01 T02910179  RH  051%=      5-min Rain = 0
KAHS 121410Z 23009KT 29/18 A2998 RMK A01 T02930180  RH  051%=      5-min Rain = 0
KAHS 121411Z 22010G15KT 29/18 A2998 RMK A01 T02930180  RH  050%=      5-min Rain = 0
KAHS 121412Z 22010G16KT 29/18 A2998 RMK A01 T02920179  RH  051%=      5-min Rain = 0
KAHS 121413Z 21010KT 29/18 A2998 RMK A01 T02920180  RH  051%=      5-min Rain = 0
KAHS 121414Z 21014KT 29/18 A2998 RMK A01 T02920179  RH  051%=      5-min Rain = 0
KAHS 121415Z 21013KT 29/18 A2998 RMK A01 T02910179  RH  051%=      5-min Rain = 0
KAHS 121416Z 22013KT 29/18 A2998 RMK A01 T02910180  RH  051%=      5-min Rain = 0
KAHS 121417Z 23011KT 29/18 A2998 RMK A01 T02900180  RH  051%=      5-min Rain = 0
KAHS 121418Z 22014KT 29/18 A2998 RMK A01 T02910181  RH  051%=      5-min Rain = 0
KAHS 121419Z 22012KT 29/18 A2998 RMK A01 T02910180  RH  051%=      5-min Rain = 0
KAHS 121420Z 22012KT 29/18 A2998 RMK A01 T02910180  RH  051%=      5-min Rain = 0
KAHS 121421Z 22011KT 29/18 A2998 RMK A01 T02910181  RH  051%=      5-min Rain = 0
KAHS 121422Z 22012G17KT 29/18 A2998 RMK A01 T02930181  RH  051%=      5-min Rain = 0
KAHS 121423Z 23012KT 29/18 A2998 RMK A01 T02920180  RH  051%=      5-min Rain = 0
KAHS 121424Z 22011KT 29/18 A2998 RMK A01 T02930181  RH  051%=      5-min Rain = 0
KAHS 121425Z 21012KT 29/18 A2998 RMK A01 T02940181  RH  050%=      5-min Rain = 0
KAHS 121426Z 22012KT 30/18 A2998 RMK A01 T02950181  RH  050%=      5-min Rain = 0
KAHS 121427Z 24014KT 29/18 A2998 RMK A01 T02940181  RH  051%=      5-min Rain = 0
KAHS 121428Z 23012KT 29/18 A2998 RMK A01 T02920181  RH  051%=      5-min Rain = 0
KAHS 121429Z 22013G18KT 29/18 A2998 RMK A01 T02930181  RH  051%=      5-min Rain = 0
KAHS 121430Z 23011KT 29/18 A2998 RMK A01 T02930181  RH  051%=      5-min Rain = 0
KAHS 121431Z 23011KT 29/18 A2998 RMK A01 T02940181  RH  051%=      5-min Rain = 0
KAHS 121432Z 23015KT 29/18 A2998 RMK A01 T02930181  RH  051%=      5-min Rain = 0
KAHS 121433Z 22017KT 29/18 A2998 RMK A01 T02920181  RH  051%=      5-min Rain = 0
KAHS 121434Z 22014KT 29/18 A2998 RMK A01 T02920181  RH  051%=      5-min Rain = 0
KAHS 121435Z 23016KT 29/18 A2998 RMK A01 T02930181  RH  051%=      5-min Rain = 0
KAHS 121436Z 22013KT 29/18 A2998 RMK A01 T02940181  RH  051%=      5-min Rain = 0
KAHS 121437Z 23012KT 29/18 A2998 RMK A01 T02940181  RH  050%=      5-min Rain = 0
KAHS 121438Z 24013KT 30/18 A2998 RMK A01 T02960182  RH  050%=      5-min Rain = 0
KAHS 121439Z 23014KT 30/18 A2998 RMK A01 T02950180  RH  050%=      5-min Rain = 0
KAHS 121440Z 23011KT 30/18 A2998 RMK A01 T02950181  RH  050%=      5-min Rain = 0
KAHS 121441Z 23013G18KT 30/18 A2998 RMK A01 T02960181  RH  050%=      5-min Rain = 0
KAHS 121442Z 23013KT 30/18 A2998 RMK A01 T02960181  RH  050%=      5-min Rain = 0
KAHS 121443Z 23014KT 30/18 A2998 RMK A01 T02970181  RH  050%=      5-min Rain = 0
KAHS 121444Z 22015KT 30/18 A2998 RMK A01 T02970181  RH  050%=      5-min Rain = 0
KAHS 121445Z 22013KT 30/18 A2998 RMK A01 T02960180  RH  050%=      5-min Rain = 0
KAHS 121446Z 21011KT 30/18 A2998 RMK A01 T02970182  RH  050%=      5-min Rain = 0
KAHS 121447Z 22010KT 30/18 A2998 RMK A01 T03010182  RH  049%=      5-min Rain = 0
KAHS 121448Z 22009KT 30/18 A2998 RMK A01 T03020183  RH  049%=      5-min Rain = 0
KAHS 121449Z 21008KT 31/18 A2998 RMK A01 T03050184  RH  048%=      5-min Rain = 0
KAHS 121450Z 21011KT 31/18 A2998 RMK A01 T03070183  RH  048%=      5-min Rain = 0
KAHS 121451Z 21011KT 30/18 A2998 RMK A01 T03040181  RH  048%=      5-min Rain = 0
KAHS 121452Z 22012G17KT 30/18 A2998 RMK A01 T03020182  RH  049%=      5-min Rain = 0
KAHS 121453Z 22013KT 30/18 A2998 RMK A01 T03010181  RH  049%=      5-min Rain = 0
KAHS 121454Z 22011KT 30/18 A2998 RMK A01 T03010182  RH  049%=      5-min Rain = 0
KAHS 121455Z 22012KT 30/18 A2998 RMK A01 T03020182  RH  049%=      5-min Rain = 0
KAHS 121456Z 21010KT 30/18 A2998 RMK A01 T03020182  RH  049%=      5-min Rain = 0
KAHS 121457Z 20012KT 30/18 A2998 RMK A01 T03030181  RH  048%=      5-min Rain = 0
KAHS 121458Z 20011KT 30/18 A2998 RMK A01 T03040182  RH  048%=      5-min Rain = 0
KAHS 121459Z 19010KT 31/18 A2998 RMK A01 T03050182  RH  048%=      5-min Rain = 0
KAHS 121500Z 20014KT 31/18 A2998 RMK A01 T03070182  RH  047%=      5-min Rain = 0
KAHS 121501Z 21015KT 31/18 A2998 RMK A01 T03050181  RH  047%=      5-min Rain = 0
KAHS 121502Z 21015KT 30/18 A2998 RMK A01 T03040181  RH  048%=      5-min Rain = 0
KAHS 121503Z 21013KT 30/18 A2998 RMK A01 T03030181  RH  048%=      5-min Rain = 0
KAHS 121504Z 20014KT 30/18 A2998 RMK A01 T03040181  RH  048%=      5-min Rain = 0
KAHS 121505Z 21010KT 30/18 A2998 RMK A01 T03040181  RH  048%=      5-min Rain = 0
KAHS 121506Z 20009KT 31/18 A2998 RMK A01 T03060182  RH  048%=      5-min Rain = 0
KAHS 121507Z 21009KT 31/18 A2998 RMK A01 T03080182  RH  047%=      5-min Rain = 0
KAHS 121508Z 22012KT 31/18 A2998 RMK A01 T03080181  RH  047%=      5-min Rain = 0
KAHS 121509Z 23013KT 31/18 A2998 RMK A01 T03060181  RH  047%=      5-min Rain = 0
KAHS 121510Z 23012KT 31/18 A2997 RMK A01 T03050181  RH  048%=      5-min Rain = 0
KAHS 121511Z 22010KT 31/18 A2998 RMK A01 T03080183  RH  047%=      5-min Rain = 0
KAHS 121512Z 21013KT 31/18 A2998 RMK A01 T03080181  RH  047%=      5-min Rain = 0
KAHS 121513Z 21010KT 31/18 A2998 RMK A01 T03070181  RH  047%=      5-min Rain = 0
KAHS 121514Z 22011KT 31/18 A2998 RMK A01 T03080183  RH  047%=      5-min Rain = 0
KAHS 121515Z 21012KT 31/18 A2997 RMK A01 T03090183  RH  047%=      5-min Rain = 0
KAHS 121516Z 20010KT 31/18 A2997 RMK A01 T03100183  RH  047%=      5-min Rain = 0
KAHS 121517Z 20010KT 31/18 A2997 RMK A01 T03100181  RH  046%=      5-min Rain = 0
KAHS 121518Z 19010KT 31/18 A2997 RMK A01 T03100181  RH  046%=      5-min Rain = 0
KAHS 121519Z 20008KT 31/18 A2997 RMK A01 T03120182  RH  046%=      5-min Rain = 0
KAHS 121520Z 19011KT 31/18 A2997 RMK A01 T03140183  RH  046%=      5-min Rain = 0
KAHS 121521Z 21009KT 31/18 A2997 RMK A01 T03140182  RH  045%=      5-min Rain = 0
KAHS 121522Z 21007KT 32/18 A2997 RMK A01 T03150184  RH  046%=      5-min Rain = 0
KAHS 121523Z 21011KT 32/18 A2997 RMK A01 T03180183  RH  045%=      5-min Rain = 0
KAHS 121524Z 21011KT 32/18 A2997 RMK A01 T03160182  RH  045%=      5-min Rain = 0
KAHS 121525Z 22012KT 32/18 A2997 RMK A01 T03150182  RH  045%=      5-min Rain = 0
KAHS 121526Z 22012KT 32/18 A2997 RMK A01 T03150181  RH  045%=      5-min Rain = 0
KAHS 121527Z 24012KT 32/18 A2997 RMK A01 T03160181  RH  045%=      5-min Rain = 0
KAHS 121528Z 24013KT 32/18 A2997 RMK A01 T03160181  RH  045%=      5-min Rain = 0
KAHS 121529Z 23010KT 32/18 A2997 RMK A01 T03150182  RH  045%=      5-min Rain = 0
KAHS 121530Z 23010KT 32/18 A2997 RMK A01 T03170182  RH  045%=      5-min Rain = 0
KAHS 121531Z 22006KT 32/18 A2998 RMK A01 T03200184  RH  045%=      5-min Rain = 0
KAHS 121532Z 21008KT 32/18 A2998 RMK A01 T03240183  RH  043%=      5-min Rain = 0
KAHS 121533Z 22010KT 32/18 A2998 RMK A01 T03230181  RH  043%=      5-min Rain = 0
KAHS 121534Z 20009KT 32/18 A2998 RMK A01 T03190181  RH  044%=      5-min Rain = 0
KAHS 121535Z 22010KT 32/18 A2997 RMK A01 T03170181  RH  044%=      5-min Rain = 0
KAHS 121536Z 22016KT 32/18 A2997 RMK A01 T03180179  RH  044%=      5-min Rain = 0
KAHS 121537Z 21011G16KT 32/18 A2997 RMK A01 T03150178  RH  044%=      5-min Rain = 0
KAHS 121538Z 21013KT 31/18 A2997 RMK A01 T03140178  RH  044%=      5-min Rain = 0
KAHS 121539Z 21009KT 31/18 A2997 RMK A01 T03120178  RH  045%=      5-min Rain = 0
KAHS 121540Z 22010KT 31/18 A2997 RMK A01 T03130179  RH  045%=      5-min Rain = 0
KAHS 121541Z 22011G16KT 31/18 A2997 RMK A01 T03140179  RH  045%=      5-min Rain = 0
KAHS 121542Z 23011KT 31/18 A2997 RMK A01 T03140180  RH  045%=      5-min Rain = 0
KAHS 121543Z 23009KT 31/18 A2997 RMK A01 T03140181  RH  045%=      5-min Rain = 0
KAHS 121544Z 23010KT 32/18 A2997 RMK A01 T03160180  RH  044%=      5-min Rain = 0
KAHS 121545Z 21010KT 32/18 A2998 RMK A01 T03160179  RH  044%=      5-min Rain = 0
KAHS 121546Z 22009KT 32/18 A2998 RMK A01 T03170178  RH  044%=      5-min Rain = 0
KAHS 121547Z 21009KT 32/18 A2998 RMK A01 T03180179  RH  044%=      5-min Rain = 0
KAHS 121548Z 21007KT 32/18 A2998 RMK A01 T03180179  RH  044%=      5-min Rain = 0
KAHS 121549Z 22010KT 32/18 A2998 RMK A01 T03170181  RH  044%=      5-min Rain = 0
KAHS 121550Z 22008KT 32/18 A2998 RMK A01 T03160181  RH  045%=      5-min Rain = 0
KAHS 121551Z 24008KT 32/18 A2998 RMK A01 T03150181  RH  045%=      5-min Rain = 0
KAHS 121552Z 24010KT 32/18 A2998 RMK A01 T03160180  RH  044%=      5-min Rain = 0
KAHS 121553Z 24008KT 32/18 A2998 RMK A01 T03180181  RH  044%=      5-min Rain = 0
KAHS 121554Z 22008KT 32/18 A2998 RMK A01 T03220182  RH  043%=      5-min Rain = 0
KAHS 121555Z 23007KT 32/18 A2998 RMK A01 T03230182  RH  043%=      5-min Rain = 0
KAHS 121556Z 21009KT 33/18 A2998 RMK A01 T03250183  RH  043%=      5-min Rain = 0
KAHS 121557Z 22009KT 33/18 A2998 RMK A01 T03260182  RH  042%=      5-min Rain = 0
KAHS 121558Z 21009KT 33/18 A2998 RMK A01 T03260183  RH  043%=      5-min Rain = 0
KAHS 121559Z 23007KT 33/18 A2997 RMK A01 T03290184  RH  042%=      5-min Rain = 0
KAHS 121600Z 22005KT 33/19 A2997 RMK A01 T03310185  RH  042%=      5-min Rain = 0
KAHS 121601Z 22007KT 33/18 A2997 RMK A01 T03340184  RH  041%=      5-min Rain = 0
KAHS 121602Z 21009KT 33/18 A2997 RMK A01 T03310181  RH  041%=      5-min Rain = 0
KAHS 121603Z 21008KT 33/18 A2997 RMK A01 T03270179  RH  041%=      5-min Rain = 0
KAHS 121604Z 23009KT 33/18 A2998 RMK A01 T03280181  RH  042%=      5-min Rain = 0
KAHS 121605Z 22007KT 33/18 A2998 RMK A01 T03290181  RH  042%=      5-min Rain = 0
KAHS 121606Z 21009KT 33/18 A2998 RMK A01 T03300178  RH  041%=      5-min Rain = 0
KAHS 121607Z 21013KT 33/18 A2998 RMK A01 T03270176  RH  040%=      5-min Rain = 0
KAHS 121608Z 21010KT 33/18 A2998 RMK A01 T03260175  RH  041%=      5-min Rain = 0
KAHS 121609Z 21011KT 33/18 A2998 RMK A01 T03270177  RH  041%=      5-min Rain = 0
KAHS 121610Z 20009KT 33/18 A2998 RMK A01 T03290179  RH  041%=      5-min Rain = 0
KAHS 121611Z 22007KT 33/18 A2998 RMK A01 T03330179  RH  040%=      5-min Rain = 0
KAHS 121612Z 21012KT 33/18 A2998 RMK A01 T03340175  RH  039%=      5-min Rain = 0
KAHS 121613Z 20008KT 33/17 A2998 RMK A01 T03330174  RH  039%=      5-min Rain = 0
KAHS 121614Z 22010KT 34/18 A2998 RMK A01 T03360176  RH  039%=      5-min Rain = 0
KAHS 121615Z 23011KT 34/18 A2998 RMK A01 T03360176  RH  038%=      5-min Rain = 0
KAHS 121616Z 21012KT 34/18 A2998 RMK A01 T03370175  RH  038%=      5-min Rain = 0
KAHS 121617Z 20011KT 34/18 A2998 RMK A01 T03350176  RH  039%=      5-min Rain = 0
KAHS 121618Z 20008KT 34/18 A2998 RMK A01 T03350179  RH  039%=      5-min Rain = 0
KAHS 121619Z 21009KT 34/18 A2998 RMK A01 T03360176  RH  039%=      5-min Rain = 0
KAHS 121620Z 23006KT 34/18 A2998 RMK A01 T03370177  RH  039%=      5-min Rain = 0
KAHS 121621Z 21010KT 34/18 A2998 RMK A01 T03380176  RH  038%=      5-min Rain = 0
KAHS 121622Z 22009KT 34/17 A2998 RMK A01 T03370173  RH  038%=      5-min Rain = 0
KAHS 121623Z 20009KT 34/17 A2998 RMK A01 T03370172  RH  037%=      5-min Rain = 0
KAHS 121624Z 20009KT 34/17 A2998 RMK A01 T03420172  RH  037%=      5-min Rain = 0
KAHS 121625Z 21010KT 34/17 A2998 RMK A01 T03420171  RH  036%=      5-min Rain = 0
KAHS 121626Z 21011KT 34/17 A2998 RMK A01 T03400173  RH  037%=      5-min Rain = 0
KAHS 121627Z 21008KT 34/17 A2998 RMK A01 T03380172  RH  037%=      5-min Rain = 0
KAHS 121628Z 19008KT 34/17 A2998 RMK A01 T03420174  RH  037%=      5-min Rain = 0
KAHS 121629Z 18008KT 34/18 A2998 RMK A01 T03420175  RH  037%=      5-min Rain = 0
KAHS 121630Z 21007KT 34/18 A2998 RMK A01 T03420176  RH  037%=      5-min Rain = 0
KAHS 121631Z 21006KT 34/17 A2998 RMK A01 T03420174  RH  037%=      5-min Rain = 0
KAHS 121632Z 20008KT 34/18 A2998 RMK A01 T03420175  RH  037%=      5-min Rain = 0
KAHS 121633Z 20007KT 34/18 A2998 RMK A01 T03410176  RH  037%=      5-min Rain = 0
KAHS 121634Z 19007KT 34/18 A2998 RMK A01 T03410175  RH  037%=      5-min Rain = 0
KAHS 121635Z 20004KT 34/17 A2998 RMK A01 T03380174  RH  038%=      5-min Rain = 0
KAHS 121636Z 19005KT 34/18 A2998 RMK A01 T03420177  RH  038%=      5-min Rain = 0
KAHS 121637Z 21008KT 35/18 A2998 RMK A01 T03490175  RH  036%=      5-min Rain = 0
KAHS 121638Z 21006KT 35/17 A2998 RMK A01 T03460172  RH  036%=      5-min Rain = 0
KAHS 121639Z 21008KT 35/17 A2998 RMK A01 T03450174  RH  036%=      5-min Rain = 0
KAHS 121640Z 19008G13KT 35/17 A2998 RMK A01 T03460171  RH  035%=      5-min Rain = 0
KAHS 121641Z 19010KT 35/17 A2997 RMK A01 T03480165  RH  034%=      5-min Rain = 0
KAHS 121642Z 17012KT 35/17 A2997 RMK A01 T03480166  RH  034%=      5-min Rain = 0
KAHS 121643Z 20011KT 35/17 A2997 RMK A01 T03480166  RH  034%=      5-min Rain = 0
KAHS 121644Z 20011KT 35/16 A2997 RMK A01 T03470162  RH  033%=      5-min Rain = 0
KAHS 121645Z 23008KT 35/17 A2997 RMK A01 T03520170  RH  034%=      5-min Rain = 0
KAHS 121646Z 22010G15KT 35/17 A2997 RMK A01 T03520167  RH  034%=      5-min Rain = 0
KAHS 121647Z 20011KT 35/16 A2997 RMK A01 T03500161  RH  032%=      5-min Rain = 0
KAHS 121648Z 20011KT 35/16 A2997 RMK A01 T03490159  RH  032%=      5-min Rain = 0
KAHS 121649Z 21010KT 35/16 A2997 RMK A01 T03480161  RH  033%=      5-min Rain = 0
KAHS 121650Z 20011KT 35/16 A2997 RMK A01 T03490161  RH  033%=      5-min Rain = 0
KAHS 121651Z 18010KT 35/16 A2997 RMK A01 T03500162  RH  033%=      5-min Rain = 0
KAHS 121652Z 18013KT 35/16 A2997 RMK A01 T03520163  RH  032%=      5-min Rain = 0
KAHS 121653Z 21011KT 35/16 A2997 RMK A01 T03520161  RH  032%=      5-min Rain = 0
KAHS 121654Z 21011KT 35/16 A2997 RMK A01 T03520162  RH  032%=      5-min Rain = 0
KAHS 121655Z 20009KT 35/16 A2997 RMK A01 T03510162  RH  032%=      5-min Rain = 0
KAHS 121656Z 21011KT 35/16 A2997 RMK A01 T03490162  RH  033%=      5-min Rain = 0
KAHS 121657Z 20008KT 35/16 A2997 RMK A01 T03480164  RH  033%=      5-min Rain = 0
KAHS 121658Z 20009G14KT 35/17 A2997 RMK A01 T03500165  RH  033%=      5-min Rain = 0
KAHS 121659Z 18009KT 35/16 A2997 RMK A01 T03530162  RH  032%=      5-min Rain = 0
KAHS 121700Z 19010KT 35/16 A2997 RMK A01 T03530157  RH  031%=      5-min Rain = 0
KAHS 121701Z 18010KT 35/16 A2997 RMK A01 T03540158  RH  031%=      5-min Rain = 0
KAHS 121702Z 18011KT 36/16 A2997 RMK A01 T03550157  RH  031%=      5-min Rain = 0
KAHS 121703Z 18011KT 35/16 A2997 RMK A01 T03530156  RH  031%=      5-min Rain = 0
KAHS 121704Z 17009KT 35/16 A2997 RMK A01 T03530157  RH  031%=      5-min Rain = 0
KAHS 121705Z 17014KT 36/16 A2997 RMK A01 T03550157  RH  031%=      5-min Rain = 0
KAHS 121706Z 17012KT 35/16 A2997 RMK A01 T03530159  RH  032%=      5-min Rain = 0
KAHS 121707Z 18010KT 36/16 A2997 RMK A01 T03560161  RH  031%=      5-min Rain = 0
KAHS 121708Z 18014KT 36/16 A2997 RMK A01 T03570158  RH  031%=      5-min Rain = 0
KAHS 121709Z 18014KT 36/16 A2997 RMK A01 T03570158  RH  031%=      5-min Rain = 0
KAHS 121710Z 18013KT 36/15 A2997 RMK A01 T03550154  RH  030%=      5-min Rain = 0
KAHS 121711Z 17010KT 35/16 A2997 RMK A01 T03520157  RH  031%=      5-min Rain = 0
KAHS 121712Z 19010KT 35/16 A2997 RMK A01 T03530160  RH  032%=      5-min Rain = 0
KAHS 121713Z 18012KT 36/16 A2997 RMK A01 T03550160  RH  031%=      5-min Rain = 0
KAHS 121714Z 19011KT 36/16 A2997 RMK A01 T03570158  RH  031%=      5-min Rain = 0
KAHS 121715Z 17011G16KT 36/16 A2997 RMK A01 T03590159  RH  031%=      5-min Rain = 0
KAHS 121716Z 18012KT 36/16 A2997 RMK A01 T03580159  RH  031%=      5-min Rain = 0
KAHS 121717Z 20009KT 36/16 A2997 RMK A01 T03560158  RH  031%=      5-min Rain = 0
KAHS 121718Z 18011KT 36/16 A2997 RMK A01 T03570162  RH  031%=      5-min Rain = 0
KAHS 121719Z 18010KT 36/16 A2997 RMK A01 T03590160  RH  031%=      5-min Rain = 0
KAHS 121720Z 19010KT 36/16 A2997 RMK A01 T03590158  RH  030%=      5-min Rain = 0
KAHS 121721Z 21008G14KT 36/16 A2997 RMK A01 T03610158  RH  030%=      5-min Rain = 0
KAHS 121722Z 20012KT 36/16 A2997 RMK A01 T03620158  RH  030%=      5-min Rain = 0
KAHS 121723Z 20009KT 36/16 A2997 RMK A01 T03580157  RH  030%=      5-min Rain = 0
KAHS 121724Z 19010KT 36/16 A2997 RMK A01 T03600155  RH  030%=      5-min Rain = 0
KAHS 121725Z 20011G16KT 36/15 A2997 RMK A01 T03610153  RH  029%=      5-min Rain = 0
KAHS 121726Z 19011KT 36/15 A2997 RMK A01 T03590154  RH  030%=      5-min Rain = 0
KAHS 121727Z 19011KT 36/16 A2997 RMK A01 T03590158  RH  030%=      5-min Rain = 0
KAHS 121728Z 17011KT 36/16 A2997 RMK A01 T03610156  RH  029%=      5-min Rain = 0
KAHS 121729Z 18011KT 36/15 A2997 RMK A01 T03610154  RH  029%=      5-min Rain = 0
KAHS 121730Z 17012KT 36/16 A2997 RMK A01 T03610156  RH  030%=      5-min Rain = 0
KAHS 121731Z 18011KT 36/16 A2997 RMK A01 T03590156  RH  030%=      5-min Rain = 0
KAHS 121732Z 18009KT 36/16 A2997 RMK A01 T03580156  RH  030%=      5-min Rain = 0
KAHS 121733Z 19011KT 36/16 A2997 RMK A01 T03600158  RH  030%=      5-min Rain = 0
KAHS 121734Z 18010KT 36/16 A2997 RMK A01 T03600158  RH  030%=      5-min Rain = 0
KAHS 121735Z 19009KT 36/16 A2997 RMK A01 T03600160  RH  030%=      5-min Rain = 0
KAHS 121736Z 16013G20KT 36/16 A2996 RMK A01 T03610159  RH  030%=      5-min Rain = 0
KAHS 121737Z 18013KT 36/16 A2997 RMK A01 T03620159  RH  030%=      5-min Rain = 0
KAHS 121738Z 18012KT 36/16 A2997 RMK A01 T03620158  RH  030%=      5-min Rain = 0
KAHS 121739Z 19010KT 36/16 A2997 RMK A01 T03580157  RH  030%=      5-min Rain = 0
KAHS 121740Z 19010KT 36/16 A2997 RMK A01 T03580156  RH  030%=      5-min Rain = 0
KAHS 121741Z 18010KT 36/16 A2997 RMK A01 T03620158  RH  030%=      5-min Rain = 0
KAHS 121742Z 16011KT 37/16 A2997 RMK A01 T03660157  RH  029%=      5-min Rain = 0
KAHS 121743Z 17012KT 37/16 A2997 RMK A01 T03680156  RH  029%=      5-min Rain = 0
KAHS 121744Z 18012KT 37/16 A2996 RMK A01 T03660156  RH  029%=      5-min Rain = 0
KAHS 121745Z 19013KT 37/16 A2996 RMK A01 T03650156  RH  029%=      5-min Rain = 0
KAHS 121746Z 19009G14KT 36/16 A2996 RMK A01 T03630155  RH  029%=      5-min Rain = 0
KAHS 121747Z 19010KT 37/16 A2997 RMK A01 T03650156  RH  029%=      5-min Rain = 0
KAHS 121748Z 18007KT 37/16 A2997 RMK A01 T03660158  RH  029%=      5-min Rain = 0
KAHS 121749Z 18011KT 37/16 A2997 RMK A01 T03690158  RH  029%=      5-min Rain = 0
KAHS 121750Z 18010KT 37/16 A2997 RMK A01 T03690159  RH  029%=      5-min Rain = 0
KAHS 121751Z 18013KT 37/16 A2997 RMK A01 T03690157  RH  029%=      5-min Rain = 0
KAHS 121752Z 18009KT 37/16 A2997 RMK A01 T03670157  RH  029%=      5-min Rain = 0
KAHS 121753Z 18010KT 37/16 A2997 RMK A01 T03690157  RH  029%=      5-min Rain = 0
KAHS 121754Z 18012KT 37/15 A2997 RMK A01 T03670154  RH  028%=      5-min Rain = 0
KAHS 121755Z 18010KT 37/16 A2997 RMK A01 T03670156  RH  029%=      5-min Rain = 0
KAHS 121756Z 18011KT 37/16 A2996 RMK A01 T03710157  RH  028%=      5-min Rain = 0
KAHS 121757Z 18010KT 37/15 A2996 RMK A01 T03700153  RH  028%=      5-min Rain = 0
KAHS 121758Z 16007KT 37/16 A2997 RMK A01 T03720157  RH  028%=      5-min Rain = 0
KAHS 121759Z 16008KT 37/15 A2997 RMK A01 T03740154  RH  027%=      5-min Rain = 0
KAHS 121800Z 16006KT 37/15 A2997 RMK A01 T03720153  RH  027%=      5-min Rain = 0
KAHS 121801Z 17008KT 37/16 A2996 RMK A01 T03710155  RH  028%=      5-min Rain = 0
KAHS 121802Z 21009KT 37/16 A2996 RMK A01 T03710156  RH  028%=      5-min Rain = 0
KAHS 121803Z 20009KT 37/16 A2996 RMK A01 T03720157  RH  028%=      5-min Rain = 0
KAHS 121804Z 20008KT 37/15 A2996 RMK A01 T03720151  RH  027%=      5-min Rain = 0
KAHS 121805Z 18009KT 37/16 A2996 RMK A01 T03730155  RH  028%=      5-min Rain = 0
KAHS 121806Z 20008KT 37/16 A2996 RMK A01 T03730155  RH  028%=      5-min Rain = 0
KAHS 121807Z 19005KT 37/16 A2996 RMK A01 T03690155  RH  028%=      5-min Rain = 0
KAHS 121808Z 17007KT 37/16 A2996 RMK A01 T03720159  RH  028%=      5-min Rain = 0
KAHS 121809Z 18008KT 37/16 A2996 RMK A01 T03730157  RH  028%=      5-min Rain = 0
KAHS 121810Z 19007G13KT 37/16 A2996 RMK A01 T03740157  RH  028%=      5-min Rain = 0
KAHS 121811Z 18012KT 38/15 A2996 RMK A01 T03760153  RH  027%=      5-min Rain = 0
KAHS 121812Z 19010KT 37/15 A2996 RMK A01 T03740150  RH  027%=      5-min Rain = 0
KAHS 121813Z 18010KT 37/15 A2996 RMK A01 T03720149  RH  027%=      5-min Rain = 0
KAHS 121814Z 20011KT 37/15 A2996 RMK A01 T03720151  RH  027%=      5-min Rain = 0
KAHS 121815Z 18011KT 37/15 A2996 RMK A01 T03740148  RH  026%=      5-min Rain = 0
KAHS 121816Z 18011KT 38/15 A2996 RMK A01 T03760148  RH  026%=      5-min Rain = 0
KAHS 121817Z 17011KT 38/15 A2996 RMK A01 T03760148  RH  026%=      5-min Rain = 0
KAHS 121818Z 19008KT 38/15 A2996 RMK A01 T03770149  RH  026%=      5-min Rain = 0
KAHS 121819Z 19008KT 38/15 A2996 RMK A01 T03760149  RH  026%=      5-min Rain = 0
KAHS 121820Z 18012KT 37/15 A2996 RMK A01 T03740148  RH  026%=      5-min Rain = 0
KAHS 121821Z 18010KT 38/15 A2996 RMK A01 T03750147  RH  026%=      5-min Rain = 0
KAHS 121822Z 18010KT 38/14 A2996 RMK A01 T03770143  RH  025%=      5-min Rain = 0
KAHS 121823Z 17009KT 38/14 A2996 RMK A01 T03760144  RH  025%=      5-min Rain = 0
KAHS 121824Z 19010KT 38/15 A2996 RMK A01 T03780146  RH  025%=      5-min Rain = 0
KAHS 121825Z 20010KT 38/15 A2996 RMK A01 T03770146  RH  026%=      5-min Rain = 0
KAHS 121826Z 21012KT 38/15 A2996 RMK A01 T03750147  RH  026%=      5-min Rain = 0
KAHS 121827Z 18008KT 38/15 A2996 RMK A01 T03750149  RH  026%=      5-min Rain = 0
KAHS 121828Z 18006KT 38/15 A2996 RMK A01 T03770148  RH  026%=      5-min Rain = 0
KAHS 121829Z 18005KT 38/14 A2996 RMK A01 T03750143  RH  025%=      5-min Rain = 0
KAHS 121830Z 19007KT 38/15 A2996 RMK A01 T03750145  RH  026%=      5-min Rain = 0
KAHS 121831Z 17011KT 38/15 A2996 RMK A01 T03770145  RH  025%=      5-min Rain = 0
KAHS 121832Z 18008G13KT 38/14 A2996 RMK A01 T03820144  RH  024%=      5-min Rain = 0
KAHS 121833Z 17012KT 38/14 A2996 RMK A01 T03840144  RH  024%=      5-min Rain = 0
KAHS 121834Z 17009KT 38/15 A2996 RMK A01 T03810145  RH  025%=      5-min Rain = 0
KAHS 121835Z 17006KT 38/15 A2995 RMK A01 T03790145  RH  025%=      5-min Rain = 0
KAHS 121836Z 18008KT 38/15 A2995 RMK A01 T03780146  RH  025%=      5-min Rain = 0
KAHS 121837Z 20009KT 38/15 A2995 RMK A01 T03790145  RH  025%=      5-min Rain = 0
KAHS 121838Z 20009G15KT 38/14 A2995 RMK A01 T03810141  RH  024%=      5-min Rain = 0
KAHS 121839Z 19012KT 38/14 A2995 RMK A01 T03830141  RH  024%=      5-min Rain = 0
KAHS 121840Z 20012KT 38/14 A2995 RMK A01 T03810140  RH  024%=      5-min Rain = 0
KAHS 121841Z 21011KT 38/14 A2995 RMK A01 T03790140  RH  024%=      5-min Rain = 0
KAHS 121842Z 20009KT 38/14 A2995 RMK A01 T03790141  RH  024%=      5-min Rain = 0
KAHS 121843Z 20006KT 38/14 A2995 RMK A01 T03770139  RH  024%=      5-min Rain = 0
KAHS 121844Z 19005KT 38/14 A2995 RMK A01 T03770141  RH  025%=      5-min Rain = 0
KAHS 121845Z 18005KT 38/14 A2995 RMK A01 T03780142  RH  025%=      5-min Rain = 0
KAHS 121846Z 23007KT 38/14 A2995 RMK A01 T03800144  RH  025%=      5-min Rain = 0
KAHS 121847Z 20012KT 38/14 A2995 RMK A01 T03800139  RH  024%=      5-min Rain = 0
KAHS 121848Z 19009KT 38/14 A2995 RMK A01 T03810136  RH  023%=      5-min Rain = 0
KAHS 121849Z 19010KT 38/13 A2995 RMK A01 T03840133  RH  023%=      5-min Rain = 0
KAHS 121850Z 18010KT 39/13 A2995 RMK A01 T03860134  RH  022%=      5-min Rain = 0
KAHS 121851Z 18009KT 39/13 A2995 RMK A01 T03860128  RH  022%=      5-min Rain = 0
KAHS 121852Z 19007KT 38/13 A2995 RMK A01 T03830129  RH  022%=      5-min Rain = 0
KAHS 121853Z 20005KT 38/13 A2995 RMK A01 T03820134  RH  023%=      5-min Rain = 0
KAHS 121854Z 19005G10KT 38/14 A2995 RMK A01 T03800137  RH  024%=      5-min Rain = 0
KAHS 121855Z 19006KT 38/14 A2995 RMK A01 T03800138  RH  024%=      5-min Rain = 0
KAHS 121856Z 19008KT 38/14 A2995 RMK A01 T03780138  RH  024%=      5-min Rain = 0
KAHS 121857Z 18012KT 38/14 A2995 RMK A01 T03820136  RH  023%=      5-min Rain = 0
KAHS 121858Z 18009KT 38/13 A2995 RMK A01 T03830134  RH  023%=      5-min Rain = 0
KAHS 121859Z 18008KT 39/14 A2995 RMK A01 T03850136  RH  023%=      5-min Rain = 0
KAHS 121900Z 19007KT 39/14 A2994 RMK A01 T03900137  RH  022%=      5-min Rain = 0
KAHS 121901Z 20007KT 39/13 A2994 RMK A01 T03880132  RH  022%=      5-min Rain = 0
KAHS 121902Z 19006KT 39/13 A2994 RMK A01 T03850133  RH  022%=      5-min Rain = 0
KAHS 121903Z 17006KT 39/14 A2994 RMK A01 T03850137  RH  023%=      5-min Rain = 0
KAHS 121904Z 15009KT 39/14 A2994 RMK A01 T03880137  RH  023%=      5-min Rain = 0
KAHS 121905Z 15010KT 39/14 A2994 RMK A01 T03880138  RH  023%=      5-min Rain = 0
KAHS 121906Z 17011KT 39/14 A2994 RMK A01 T03900137  RH  022%=      5-min Rain = 0
KAHS 121907Z 19011KT 39/13 A2994 RMK A01 T03900134  RH  022%=      5-min Rain = 0
KAHS 121908Z 18009G14KT 39/13 A2994 RMK A01 T03870132  RH  022%=      5-min Rain = 0
KAHS 121909Z 18007KT 39/14 A2994 RMK A01 T03850135  RH  023%=      5-min Rain = 0
KAHS 121910Z 20012KT 39/13 A2994 RMK A01 T03890132  RH  022%=      5-min Rain = 0
KAHS 121911Z 21011KT 39/13 A2994 RMK A01 T03870130  RH  022%=      5-min Rain = 0
KAHS 121912Z 19008KT 38/13 A2994 RMK A01 T03840128  RH  022%=      5-min Rain = 0
KAHS 121913Z 17010KT 38/13 A2994 RMK A01 T03820130  RH  022%=      5-min Rain = 0
KAHS 121914Z 16008G14KT 38/13 A2994 RMK A01 T03840129  RH  022%=      5-min Rain = 0
KAHS 121915Z 17006KT 38/13 A2994 RMK A01 T03840128  RH  022%=      5-min Rain = 0
KAHS 121916Z 15007KT 39/13 A2994 RMK A01 T03850127  RH  022%=      5-min Rain = 0
KAHS 121917Z 17009KT 39/13 A2994 RMK A01 T03860127  RH  022%=      5-min Rain = 0
KAHS 121918Z 16006KT 39/13 A2994 RMK A01 T03860128  RH  022%=      5-min Rain = 0
KAHS 121919Z 16010KT 39/13 A2994 RMK A01 T03900130  RH  021%=      5-min Rain = 0
KAHS 121920Z 18008KT 39/13 A2994 RMK A01 T03900130  RH  021%=      5-min Rain = 0
KAHS 121921Z 17009KT 39/13 A2993 RMK A01 T03900134  RH  022%=      5-min Rain = 0
KAHS 121922Z 18009KT 39/14 A2993 RMK A01 T03930137  RH  022%=      5-min Rain = 0
KAHS 121923Z 18010KT 39/14 A2993 RMK A01 T03910135  RH  022%=      5-min Rain = 0
KAHS 121924Z 16013KT 39/14 A2993 RMK A01 T03890138  RH  023%=      5-min Rain = 0
KAHS 121925Z 16010KT 39/14 A2993 RMK A01 T03890138  RH  023%=      5-min Rain = 0
KAHS 121926Z 18013KT 39/14 A2993 RMK A01 T03890138  RH  023%=      5-min Rain = 0
KAHS 121927Z 17009KT 39/14 A2993 RMK A01 T03850137  RH  023%=      5-min Rain = 0
KAHS 121928Z 16009KT 39/14 A2993 RMK A01 T03860139  RH  023%=      5-min Rain = 0
KAHS 121929Z 16008KT 39/14 A2993 RMK A01 T03870138  RH  023%=      5-min Rain = 0
KAHS 121930Z 18010KT 39/14 A2993 RMK A01 T03900141  RH  023%=      5-min Rain = 0
KAHS 121931Z 17012KT 39/14 A2993 RMK A01 T03890139  RH  023%=      5-min Rain = 0
KAHS 121932Z 19011KT 39/13 A2993 RMK A01 T03860130  RH  022%=      5-min Rain = 0
KAHS 121933Z 20010KT 39/13 A2993 RMK A01 T03850128  RH  022%=      5-min Rain = 0
KAHS 121934Z 18012KT 39/13 A2993 RMK A01 T03860132  RH  022%=      5-min Rain = 0
KAHS 121935Z 16011KT 39/13 A2993 RMK A01 T03880134  RH  022%=      5-min Rain = 0
KAHS 121936Z 16012KT 39/13 A2993 RMK A01 T03870130  RH  022%=      5-min Rain = 0
KAHS 121937Z 17011KT 39/13 A2993 RMK A01 T03880127  RH  021%=      5-min Rain = 0
KAHS 121938Z 15010KT 39/13 A2993 RMK A01 T03910127  RH  021%=      5-min Rain = 0
KAHS 121939Z 15010KT 39/13 A2993 RMK A01 T03900130  RH  021%=      5-min Rain = 0
KAHS 121940Z 16010KT 39/13 A2993 RMK A01 T03940134  RH  021%=      5-min Rain = 0
KAHS 121941Z 16010KT 39/13 A2993 RMK A01 T03930132  RH  021%=      5-min Rain = 0
KAHS 121942Z 17009KT 39/13 A2993 RMK A01 T03920134  RH  022%=      5-min Rain = 0
KAHS 121943Z 17009KT 39/14 A2993 RMK A01 T03910137  RH  022%=      5-min Rain = 0
KAHS 121944Z 20010KT 39/14 A2993 RMK A01 T03920136  RH  022%=      5-min Rain = 0
KAHS 121945Z 19007KT 39/14 A2993 RMK A01 T03880135  RH  022%=      5-min Rain = 0
KAHS 121946Z 17009G14KT 39/14 A2993 RMK A01 T03870135  RH  022%=      5-min Rain = 0
KAHS 121947Z 17010KT 39/13 A2993 RMK A01 T03890133  RH  022%=      5-min Rain = 0
KAHS 121948Z 20008KT 39/13 A2993 RMK A01 T03910132  RH  022%=      5-min Rain = 0
KAHS 121949Z 19009KT 39/13 A2993 RMK A01 T03890131  RH  022%=      5-min Rain = 0
KAHS 121950Z 17009KT 39/13 A2993 RMK A01 T03890132  RH  022%=      5-min Rain = 0
KAHS 121951Z 17010KT 39/13 A2993 RMK A01 T03870133  RH  022%=      5-min Rain = 0
KAHS 121952Z 18011KT 39/14 A2993 RMK A01 T03890136  RH  022%=      5-min Rain = 0
KAHS 121953Z 19007KT 39/14 A2992 RMK A01 T03890138  RH  023%=      5-min Rain = 0
KAHS 121954Z 17006KT 39/14 A2992 RMK A01 T03900141  RH  023%=      5-min Rain = 0
KAHS 121955Z 15010KT 40/14 A2992 RMK A01 T03950144  RH  023%=      5-min Rain = 0
KAHS 121956Z 15011KT 40/14 A2992 RMK A01 T03960141  RH  022%=      5-min Rain = 0
KAHS 121957Z 14011KT 40/14 A2992 RMK A01 T03960140  RH  022%=      5-min Rain = 0
KAHS 121958Z 15009KT 39/14 A2992 RMK A01 T03930137  RH  022%=      5-min Rain = 0
KAHS 121959Z 16011KT 39/14 A2992 RMK A01 T03940137  RH  022%=      5-min Rain = 0
KAHS 122000Z 18013KT 40/13 A2992 RMK A01 T03950129  RH  021%=      5-min Rain = 0
KAHS 122001Z 18013KT 39/13 A2992 RMK A01 T03920126  RH  021%=      5-min Rain = 0
KAHS 122002Z 18011KT 39/13 A2992 RMK A01 T03910125  RH  021%=      5-min Rain = 0
KAHS 122003Z 19011KT 39/13 A2992 RMK A01 T03940131  RH  021%=      5-min Rain = 0
KAHS 122004Z 19009KT 39/13 A2992 RMK A01 T03910131  RH  021%=      5-min Rain = 0
KAHS 122005Z 18010KT 39/14 A2992 RMK A01 T03890135  RH  022%=      5-min Rain = 0
KAHS 122006Z 19008KT 39/14 A2992 RMK A01 T03900136  RH  022%=      5-min Rain = 0
KAHS 122007Z 20005KT 39/14 A2992 RMK A01 T03890137  RH  023%=      5-min Rain = 0
KAHS 122008Z 21010KT 39/14 A2992 RMK A01 T03890138  RH  023%=      5-min Rain = 0
KAHS 122009Z 21015G21KT 39/14 A2992 RMK A01 T03900139  RH  023%=      5-min Rain = 0
KAHS 122010Z 20013KT 39/14 A2992 RMK A01 T03890138  RH  023%=      5-min Rain = 0
KAHS 122011Z 18011KT 39/14 A2992 RMK A01 T03930141  RH  023%=      5-min Rain = 0
KAHS 122012Z 17011KT 40/14 A2992 RMK A01 T03990139  RH  022%=      5-min Rain = 0
KAHS 122013Z 17014KT 40/13 A2992 RMK A01 T04000130  RH  020%=      5-min Rain = 0
KAHS 122014Z 17013KT 40/13 A2992 RMK A01 T03950130  RH  021%=      5-min Rain = 0
KAHS 122015Z 17008G14KT 39/13 A2992 RMK A01 T03930129  RH  021%=      5-min Rain = 0
KAHS 122016Z 17008KT 39/13 A2992 RMK A01 T03930129  RH  021%=      5-min Rain = 0
KAHS 122017Z 18005KT 39/13 A2992 RMK A01 T03940128  RH  021%=      5-min Rain = 0
KAHS 122018Z 18009KT 39/13 A2991 RMK A01 T03930130  RH  021%=      5-min Rain = 0
KAHS 122019Z 19011KT 39/13 A2991 RMK A01 T03940129  RH  021%=      5-min Rain = 0
KAHS 122020Z 18010KT 40/13 A2991 RMK A01 T03980127  RH  020%=      5-min Rain = 0
KAHS 122021Z 18008KT 40/13 A2992 RMK A01 T03980128  RH  020%=      5-min Rain = 0
KAHS 122022Z 19009KT 40/13 A2991 RMK A01 T03990127  RH  020%=      5-min Rain = 0
KAHS 122023Z 18006KT 40/13 A2991 RMK A01 T04000125  RH  020%=      5-min Rain = 0
KAHS 122024Z 18009KT 40/12 A2991 RMK A01 T04000124  RH  020%=      5-min Rain = 0
KAHS 122025Z 18009KT 40/12 A2991 RMK A01 T04000120  RH  019%=      5-min Rain = 0
KAHS 122026Z 18009KT 40/12 A2991 RMK A01 T03990124  RH  020%=      5-min Rain = 0
KAHS 122027Z 19009KT 40/13 A2991 RMK A01 T03990128  RH  020%=      5-min Rain = 0
KAHS 122028Z 17008KT 40/13 A2991 RMK A01 T04000132  RH  021%=      5-min Rain = 0
KAHS 122029Z 18006KT 40/13 A2991 RMK A01 T03990132  RH  021%=      5-min Rain = 0
KAHS 122030Z 19005G10KT 40/13 A2991 RMK A01 T03980133  RH  021%=      5-min Rain = 0
KAHS 122031Z 20010KT 40/13 A2991 RMK A01 T03970131  RH  021%=      5-min Rain = 0
KAHS 122032Z 22008KT 40/13 A2991 RMK A01 T03960127  RH  020%=      5-min Rain = 0
KAHS 122033Z 21004KT 39/13 A2991 RMK A01 T03910125  RH  021%=      5-min Rain = 0
KAHS 122034Z 19006KT 39/13 A2991 RMK A01 T03940128  RH  021%=      5-min Rain = 0
KAHS 122035Z 20010KT 40/13 A2991 RMK A01 T03970129  RH  020%=      5-min Rain = 0
KAHS 122036Z 21011KT 40/13 A2991 RMK A01 T03980131  RH  021%=      5-min Rain = 0
KAHS 122037Z 19010KT 40/13 A2991 RMK A01 T03960132  RH  021%=      5-min Rain = 0
KAHS 122038Z 17009KT 40/14 A2991 RMK A01 T03980135  RH  021%=      5-min Rain = 0
KAHS 122039Z 19008KT 40/13 A2991 RMK A01 T04000131  RH  020%=      5-min Rain = 0
KAHS 122040Z 21007KT 39/13 A2991 RMK A01 T03940129  RH  021%=      5-min Rain = 0
KAHS 122041Z 17006KT 39/13 A2991 RMK A01 T03930132  RH  021%=      5-min Rain = 0
KAHS 122042Z 19010KT 40/13 A2991 RMK A01 T03970134  RH  021%=      5-min Rain = 0
KAHS 122043Z 19009KT 40/14 A2991 RMK A01 T03990137  RH  021%=      5-min Rain = 0
KAHS 122044Z 19011G16KT 40/14 A2991 RMK A01 T04010136  RH  021%=      5-min Rain = 0
KAHS 122045Z 21008KT 40/14 A2991 RMK A01 T03990136  RH  021%=      5-min Rain = 0
KAHS 122046Z 20008KT 40/14 A2991 RMK A01 T03990135  RH  021%=      5-min Rain = 0
KAHS 122047Z 19007KT 40/14 A2991 RMK A01 T04010136  RH  021%=      5-min Rain = 0
KAHS 122048Z 18008KT 40/14 A2991 RMK A01 T04030136  RH  021%=      5-min Rain = 0
KAHS 122049Z 19008G13KT 40/14 A2991 RMK A01 T04020135  RH  021%=      5-min Rain = 0
KAHS 122050Z 20013KT 40/13 A299 RMK A01 T04010129  RH  020%=      5-min Rain = 0
KAHS 122051Z 20013KT 40/13 A2991 RMK A01 T04000130  RH  020%=      5-min Rain = 0
KAHS 122052Z 20011KT 40/13 A2991 RMK A01 T03990131  RH  021%=      5-min Rain = 0
KAHS 122053Z 19009KT 40/14 A299 RMK A01 T04030137  RH  021%=      5-min Rain = 0
KAHS 122054Z 18008KT 40/14 A2991 RMK A01 T04040137  RH  021%=      5-min Rain = 0
KAHS 122055Z 18008KT 40/14 A2991 RMK A01 T04010136  RH  021%=      5-min Rain = 0
KAHS 122056Z 20010G16KT 40/13 A299 RMK A01 T04010134  RH  021%=      5-min Rain = 0
KAHS 122057Z 20011KT 40/13 A299 RMK A01 T04010132  RH  020%=      5-min Rain = 0
KAHS 122058Z 20009KT 40/13 A299 RMK A01 T04020133  RH  020%=      5-min Rain = 0
KAHS 122059Z 20010KT 40/13 A299 RMK A01 T04030130  RH  020%=      5-min Rain = 0
KAHS 122100Z 20008KT 40/13 A299 RMK A01 T04010132  RH  020%=      5-min Rain = 0
KAHS 122101Z 19008KT 40/13 A299 RMK A01 T04000132  RH  020%=      5-min Rain = 0
KAHS 122102Z 16011KT 40/13 A299 RMK A01 T04000133  RH  021%=      5-min Rain = 0
KAHS 122103Z 15008KT 40/13 A299 RMK A01 T03980132  RH  021%=      5-min Rain = 0
KAHS 122104Z 17007KT 40/14 A299 RMK A01 T03990135  RH  021%=      5-min Rain = 0
KAHS 122105Z 20007KT 40/13 A299 RMK A01 T04020132  RH  020%=      5-min Rain = 0
KAHS 122106Z 19010KT 40/13 A299 RMK A01 T04010131  RH  020%=      5-min Rain = 0
KAHS 122107Z 18009KT 40/13 A299 RMK A01 T04020133  RH  020%=      5-min Rain = 0
KAHS 122108Z 21011KT 40/13 A299 RMK A01 T04030134  RH  020%=      5-min Rain = 0
KAHS 122109Z 21011KT 40/13 A299 RMK A01 T04020134  RH  021%=      5-min Rain = 0
KAHS 122110Z 18011KT 40/13 A299 RMK A01 T04020134  RH  021%=      5-min Rain = 0
KAHS 122111Z 21010KT 40/14 A299 RMK A01 T04030135  RH  021%=      5-min Rain = 0
KAHS 122112Z 21009KT 40/13 A299 RMK A01 T04040132  RH  020%=      5-min Rain = 0
KAHS 122113Z 22011KT 40/13 A299 RMK A01 T04030130  RH  020%=      5-min Rain = 0
KAHS 122114Z 20011KT 40/13 A299 RMK A01 T04000130  RH  020%=      5-min Rain = 0
KAHS 122115Z 22008KT 40/13 A299 RMK A01 T04010130  RH  020%=      5-min Rain = 0
KAHS 122116Z 22009KT 40/13 A299 RMK A01 T04020130  RH  020%=      5-min Rain = 0
KAHS 122117Z 20007KT 40/13 A299 RMK A01 T04010132  RH  020%=      5-min Rain = 0
KAHS 122118Z 19010KT 40/13 A299 RMK A01 T04010133  RH  021%=      5-min Rain = 0
KAHS 122119Z 19010KT 40/13 A299 RMK A01 T03990133  RH  021%=      5-min Rain = 0
KAHS 122120Z 19010KT 40/13 A299 RMK A01 T04000133  RH  021%=      5-min Rain = 0
KAHS 122121Z 18011KT 40/13 A299 RMK A01 T04010134  RH  021%=      5-min Rain = 0
KAHS 122122Z 19011KT 40/13 A299 RMK A01 T04030133  RH  020%=      5-min Rain = 0
KAHS 122123Z 18011KT 40/13 A299 RMK A01 T04030130  RH  020%=      5-min Rain = 0
KAHS 122124Z 18008KT 40/13 A299 RMK A01 T04010131  RH  020%=      5-min Rain = 0
KAHS 122125Z 17010KT 40/13 A299 RMK A01 T04020131  RH  020%=      5-min Rain = 0
KAHS 122126Z 18011KT 40/13 A299 RMK A01 T04030128  RH  020%=      5-min Rain = 0
KAHS 122127Z 20009KT 40/13 A299 RMK A01 T04010127  RH  020%=      5-min Rain = 0
KAHS 122128Z 19011KT 40/13 A299 RMK A01 T03990127  RH  020%=      5-min Rain = 0
KAHS 122129Z 16007KT 40/13 A299 RMK A01 T03970126  RH  020%=      5-min Rain = 0
KAHS 122130Z 16004KT 40/13 A299 RMK A01 T03960127  RH  020%=      5-min Rain = 0
KAHS 122131Z 15007KT 40/13 A299 RMK A01 T03970127  RH  020%=      5-min Rain = 0
KAHS 122132Z 18011KT 40/13 A2989 RMK A01 T03960128  RH  020%=      5-min Rain = 0
KAHS 122133Z 19009KT 39/13 A2989 RMK A01 T03940127  RH  021%=      5-min Rain = 0
KAHS 122134Z 21008KT 39/13 A2989 RMK A01 T03920127  RH  021%=      5-min Rain = 0
KAHS 122135Z 18006KT 39/13 A2989 RMK A01 T03910127  RH  021%=      5-min Rain = 0
KAHS 122136Z 17004KT 39/13 A2989 RMK A01 T03910128  RH  021%=      5-min Rain = 0
KAHS 122137Z 20004KT 39/13 A2989 RMK A01 T03910128  RH  021%=      5-min Rain = 0
KAHS 122138Z 20005KT 39/13 A2989 RMK A01 T03900128  RH  021%=      5-min Rain = 0
KAHS 122139Z 19004KT 39/13 A2989 RMK A01 T03910129  RH  021%=      5-min Rain = 0
KAHS 122140Z 15009KT 39/13 A2989 RMK A01 T03940131  RH  021%=      5-min Rain = 0
KAHS 122141Z 17012KT 40/13 A2989 RMK A01 T03950133  RH  021%=      5-min Rain = 0
KAHS 122142Z 18010KT 40/14 A2989 RMK A01 T03990135  RH  021%=      5-min Rain = 0
KAHS 122143Z 17010KT 40/13 A2989 RMK A01 T04040130  RH  020%=      5-min Rain = 0
KAHS 122144Z 18006KT 41/13 A2989 RMK A01 T04050128  RH  020%=      5-min Rain = 0
KAHS 122145Z 19008KT 41/13 A2989 RMK A01 T04050127  RH  019%=      5-min Rain = 0
KAHS 122146Z 19009KT 40/13 A2989 RMK A01 T04040128  RH  020%=      5-min Rain = 0
KAHS 122147Z 19010KT 41/13 A2989 RMK A01 T04050126  RH  019%=      5-min Rain = 0
KAHS 122148Z 22009KT 41/13 A2989 RMK A01 T04060126  RH  019%=      5-min Rain = 0
KAHS 122149Z 21007KT 40/12 A2989 RMK A01 T04030124  RH  019%=      5-min Rain = 0
KAHS 122150Z 18006KT 40/13 A2989 RMK A01 T04040126  RH  019%=      5-min Rain = 0
KAHS 122151Z 16008KT 41/13 A2989 RMK A01 T04070128  RH  019%=      5-min Rain = 0
KAHS 122152Z 15009KT 41/13 A2989 RMK A01 T04060130  RH  020%=      5-min Rain = 0
KAHS 122153Z 15010KT 41/13 A2989 RMK A01 T04070129  RH  019%=      5-min Rain = 0
KAHS 122154Z 16010KT 41/13 A2989 RMK A01 T04070127  RH  019%=      5-min Rain = 0
KAHS 122155Z 14009KT 41/13 A2989 RMK A01 T04050126  RH  019%=      5-min Rain = 0
KAHS 122156Z 15007KT 41/13 A2989 RMK A01 T04060127  RH  019%=      5-min Rain = 0
KAHS 122157Z 13010KT 41/13 A2988 RMK A01 T04070127  RH  019%=      5-min Rain = 0
KAHS 122158Z 13011KT 41/13 A2988 RMK A01 T04070126  RH  019%=      5-min Rain = 0
KAHS 122159Z 14012KT 40/13 A2988 RMK A01 T04040125  RH  019%=      5-min Rain = 0
KAHS 122200Z 12009KT 40/13 A2988 RMK A01 T04030127  RH  020%=      5-min Rain = 0
KAHS 122201Z 14008KT 40/13 A2988 RMK A01 T04040127  RH  019%=      5-min Rain = 0
KAHS 122202Z 16009KT 41/13 A2988 RMK A01 T04060129  RH  019%=      5-min Rain = 0
KAHS 122203Z 15011KT 41/13 A2988 RMK A01 T04050126  RH  019%=      5-min Rain = 0
KAHS 122204Z 15011KT 40/13 A2988 RMK A01 T04020127  RH  020%=      5-min Rain = 0
KAHS 122205Z 15010KT 40/13 A2988 RMK A01 T04030126  RH  019%=      5-min Rain = 0
KAHS 122206Z 15010KT 40/13 A2988 RMK A01 T04030125  RH  019%=      5-min Rain = 0
KAHS 122207Z 15011KT 40/13 A2988 RMK A01 T04010125  RH  019%=      5-min Rain = 0
KAHS 122208Z 16008KT 40/13 A2988 RMK A01 T04030125  RH  019%=      5-min Rain = 0
KAHS 122209Z 15009KT 40/13 A2988 RMK A01 T04030125  RH  019%=      5-min Rain = 0
KAHS 122210Z 15009KT 41/13 A2988 RMK A01 T04050126  RH  019%=      5-min Rain = 0
KAHS 122211Z 15008KT 41/13 A2988 RMK A01 T04060125  RH  019%=      5-min Rain = 0
KAHS 122212Z 15010KT 41/13 A2988 RMK A01 T04050125  RH  019%=      5-min Rain = 0
KAHS 122213Z 16009KT 41/13 A2988 RMK A01 T04060125  RH  019%=      5-min Rain = 0
KAHS 122214Z 17010G15KT 41/13 A2988 RMK A01 T04060125  RH  019%=      5-min Rain = 0
KAHS 122215Z 16013KT 41/13 A2988 RMK A01 T04070127  RH  019%=      5-min Rain = 0
KAHS 122216Z 15011KT 41/12 A2988 RMK A01 T04050124  RH  019%=      5-min Rain = 0
KAHS 122217Z 13008KT 40/12 A2988 RMK A01 T04040123  RH  019%=      5-min Rain = 0
KAHS 122218Z 14007KT 40/12 A2988 RMK A01 T04040123  RH  019%=      5-min Rain = 0
KAHS 122219Z 16010KT 41/13 A2988 RMK A01 T04070125  RH  019%=      5-min Rain = 0
KAHS 122220Z 15009KT 41/12 A2988 RMK A01 T04100124  RH  019%=      5-min Rain = 0
KAHS 122221Z 15006KT 41/12 A2988 RMK A01 T04070120  RH  018%=      5-min Rain = 0
KAHS 122222Z 15009KT 40/12 A2988 RMK A01 T04030121  RH  019%=      5-min Rain = 0
KAHS 122223Z 17011KT 40/12 A2988 RMK A01 T04020122  RH  019%=      5-min Rain = 0
KAHS 122224Z 16008KT 40/12 A2988 RMK A01 T04020121  RH  019%=      5-min Rain = 0
KAHS 122225Z 17006KT 40/12 A2988 RMK A01 T04020122  RH  019%=      5-min Rain = 0
KAHS 122226Z 17007KT 40/12 A2988 RMK A01 T04020120  RH  019%=      5-min Rain = 0
KAHS 122227Z 18007KT 40/12 A2988 RMK A01 T04000120  RH  019%=      5-min Rain = 0
KAHS 122228Z 15010KT 40/12 A2988 RMK A01 T03970121  RH  019%=      5-min Rain = 0
KAHS 122229Z 13010KT 40/12 A2988 RMK A01 T03970121  RH  019%=      5-min Rain = 0
KAHS 122230Z 14013KT 40/12 A2988 RMK A01 T03980121  RH  019%=      5-min Rain = 0
KAHS 122231Z 14010KT 40/12 A2988 RMK A01 T03980121  RH  019%=      5-min Rain = 0
KAHS 122232Z 15008KT 40/12 A2988 RMK A01 T04010124  RH  019%=      5-min Rain = 0
KAHS 122233Z 15011KT 40/12 A2988 RMK A01 T04030122  RH  019%=      5-min Rain = 0
KAHS 122234Z 14009KT 40/12 A2988 RMK A01 T04040122  RH  019%=      5-min Rain = 0
KAHS 122235Z 15009KT 40/12 A2988 RMK A01 T04040122  RH  019%=      5-min Rain = 0
KAHS 122236Z 15010KT 40/12 A2988 RMK A01 T04030122  RH  019%=      5-min Rain = 0
KAHS 122237Z 16006KT 40/13 A2988 RMK A01 T04040126  RH  019%=      5-min Rain = 0
KAHS 122238Z 15008KT 41/13 A2988 RMK A01 T04070130  RH  020%=      5-min Rain = 0
KAHS 122239Z 16009KT 41/13 A2988 RMK A01 T04050131  RH  020%=      5-min Rain = 0
KAHS 122240Z 15008KT 40/12 A2988 RMK A01 T04040123  RH  019%=      5-min Rain = 0
KAHS 122241Z 15008KT 40/12 A2988 RMK A01 T04040119  RH  019%=      5-min Rain = 0
KAHS 122242Z 13006KT 40/12 A2988 RMK A01 T04030118  RH  018%=      5-min Rain = 0
KAHS 122243Z 13009KT 40/12 A2987 RMK A01 T04030122  RH  019%=      5-min Rain = 0
KAHS 122244Z 13009KT 40/12 A2988 RMK A01 T04040121  RH  019%=      5-min Rain = 0
KAHS 122245Z 12007KT 40/12 A2987 RMK A01 T04030118  RH  018%=      5-min Rain = 0
KAHS 122246Z 13010KT 40/12 A2987 RMK A01 T04030117  RH  018%=      5-min Rain = 0
KAHS 122247Z 15011KT 40/12 A2988 RMK A01 T04030116  RH  018%=      5-min Rain = 0
KAHS 122248Z 14008KT 40/12 A2987 RMK A01 T04020117  RH  019%=      5-min Rain = 0
KAHS 122249Z 15010KT 40/12 A2987 RMK A01 T04040123  RH  019%=      5-min Rain = 0
KAHS 122250Z 17012KT 41/12 A2988 RMK A01 T04050122  RH  019%=      5-min Rain = 0
KAHS 122251Z 18013KT 41/12 A2988 RMK A01 T04050119  RH  018%=      5-min Rain = 0
KAHS 122252Z 18012KT 41/12 A2988 RMK A01 T04050118  RH  018%=      5-min Rain = 0
KAHS 122253Z 19010G15KT 40/12 A2988 RMK A01 T04030117  RH  018%=      5-min Rain = 0
KAHS 122254Z 18011KT 40/12 A2988 RMK A01 T04020117  RH  018%=      5-min Rain = 0
KAHS 122255Z 17009KT 40/12 A2988 RMK A01 T04030117  RH  018%=      5-min Rain = 0
KAHS 122256Z 17010KT 40/12 A2988 RMK A01 T04020116  RH  018%=      5-min Rain = 0
KAHS 122257Z 15007KT 40/12 A2988 RMK A01 T04020117  RH  018%=      5-min Rain = 0
KAHS 122258Z 16009KT 40/12 A2988 RMK A01 T04040120  RH  019%=      5-min Rain = 0
KAHS 122259Z 17010KT 41/12 A2988 RMK A01 T04050119  RH  018%=      5-min Rain = 0
KAHS 122300Z 16008KT 41/12 A2988 RMK A01 T04050116  RH  018%=      5-min Rain = 0
KAHS 122301Z 16007G12KT 40/12 A2988 RMK A01 T04040116  RH  018%=      5-min Rain = 0
KAHS 122302Z 16004KT 40/12 A2988 RMK A01 T04040117  RH  018%=      5-min Rain = 0
KAHS 122303Z 17007KT 41/12 A2987 RMK A01 T04060118  RH  018%=      5-min Rain = 0
KAHS 122304Z 15009KT 41/12 A2988 RMK A01 T04070117  RH  018%=      5-min Rain = 0
KAHS 122305Z 14007KT 40/12 A2987 RMK A01 T04040116  RH  018%=      5-min Rain = 0
KAHS 122306Z 18007G12KT 40/12 A2987 RMK A01 T04040118  RH  018%=      5-min Rain = 0
KAHS 122307Z 17011KT 41/12 A2987 RMK A01 T04060118  RH  018%=      5-min Rain = 0
KAHS 122308Z 17009KT 41/12 A2988 RMK A01 T04070118  RH  018%=      5-min Rain = 0
KAHS 122309Z 16012KT 41/12 A2988 RMK A01 T04060117  RH  018%=      5-min Rain = 0
KAHS 122310Z 17009KT 40/12 A2988 RMK A01 T04040116  RH  018%=      5-min Rain = 0
KAHS 122311Z 17008KT 40/12 A2987 RMK A01 T04030118  RH  018%=      5-min Rain = 0
KAHS 122312Z 17011KT 40/12 A2987 RMK A01 T04040118  RH  018%=      5-min Rain = 0
KAHS 122313Z 17009KT 40/12 A2988 RMK A01 T04030117  RH  018%=      5-min Rain = 0
KAHS 122314Z 19008KT 40/12 A2987 RMK A01 T04010116  RH  018%=      5-min Rain = 0
KAHS 122315Z 15008KT 40/12 A2987 RMK A01 T04010117  RH  018%=      5-min Rain = 0
KAHS 122316Z 16008KT 40/12 A2987 RMK A01 T04020117  RH  018%=      5-min Rain = 0
KAHS 122317Z 19009KT 40/12 A2987 RMK A01 T04020117  RH  018%=      5-min Rain = 0
KAHS 122318Z 19009KT 40/12 A2987 RMK A01 T04010115  RH  018%=      5-min Rain = 0
KAHS 122319Z 20009KT 40/12 A2987 RMK A01 T04010116  RH  018%=      5-min Rain = 0
KAHS 122320Z 22009KT 40/12 A2987 RMK A01 T04010115  RH  018%=      5-min Rain = 0
KAHS 122321Z 21008KT 40/12 A2987 RMK A01 T04010115  RH  018%=      5-min Rain = 0
KAHS 122322Z 20008KT 40/12 A2987 RMK A01 T04010115  RH  018%=      5-min Rain = 0
KAHS 122323Z 17008KT 40/12 A2987 RMK A01 T04030119  RH  018%=      5-min Rain = 0
KAHS 122324Z 16009KT 41/12 A2987 RMK A01 T04050118  RH  018%=      5-min Rain = 0
KAHS 122325Z 17008KT 40/12 A2987 RMK A01 T04040118  RH  018%=      5-min Rain = 0
KAHS 122326Z 15008KT 41/12 A2987 RMK A01 T04050119  RH  018%=      5-min Rain = 0
KAHS 122327Z 16009KT 41/12 A2987 RMK A01 T04050117  RH  018%=      5-min Rain = 0
KAHS 122328Z 17007KT 40/12 A2987 RMK A01 T04040117  RH  018%=      5-min Rain = 0
KAHS 122329Z 15009KT 41/12 A2987 RMK A01 T04050118  RH  018%=      5-min Rain = 0
KAHS 122330Z 17009KT 41/12 A2987 RMK A01 T04050118  RH  018%=      5-min Rain = 0
KAHS 122331Z 17009KT 41/12 A2987 RMK A01 T04050116  RH  018%=      5-min Rain = 0
KAHS 122332Z 17009KT 40/12 A2987 RMK A01 T04040116  RH  018%=      5-min Rain = 0
KAHS 122333Z 18010KT 40/12 A2987 RMK A01 T04040116  RH  018%=      5-min Rain = 0
KAHS 122334Z 19009KT 40/11 A2987 RMK A01 T04030113  RH  018%=      5-min Rain = 0
KAHS 122335Z 18010KT 40/11 A2987 RMK A01 T04010113  RH  018%=      5-min Rain = 0
KAHS 122336Z 18008KT 40/11 A2987 RMK A01 T04000113  RH  018%=      5-min Rain = 0
KAHS 122337Z 17009KT 40/12 A2987 RMK A01 T04010116  RH  018%=      5-min Rain = 0
KAHS 122338Z 17010KT 40/11 A2987 RMK A01 T04010114  RH  018%=      5-min Rain = 0
KAHS 122339Z 17010KT 40/11 A2987 RMK A01 T04010113  RH  018%=      5-min Rain = 0
KAHS 122340Z 17008KT 40/11 A2987 RMK A01 T04000113  RH  018%=      5-min Rain = 0
KAHS 122341Z 18006G11KT 40/11 A2987 RMK A01 T04010114  RH  018%=      5-min Rain = 0
KAHS 122342Z 17008KT 40/12 A2987 RMK A01 T04030116  RH  018%=      5-min Rain = 0
KAHS 122343Z 17008KT 40/12 A2987 RMK A01 T04040117  RH  018%=      5-min Rain = 0
KAHS 122344Z 17007KT 40/12 A2987 RMK A01 T04040117  RH  018%=      5-min Rain = 0
KAHS 122345Z 17008G13KT 40/12 A2987 RMK A01 T04040118  RH  018%=      5-min Rain = 0
KAHS 122346Z 16010KT 40/12 A2987 RMK A01 T04020117  RH  018%=      5-min Rain = 0
KAHS 122347Z 16009KT 40/12 A2987 RMK A01 T04020118  RH  019%=      5-min Rain = 0
KAHS 122348Z 15013KT 40/12 A2987 RMK A01 T04010120  RH  019%=      5-min Rain = 0
KAHS 122349Z 15010KT 40/12 A2987 RMK A01 T03980120  RH  019%=      5-min Rain = 0
KAHS 122350Z 15011KT 40/12 A2987 RMK A01 T03980123  RH  020%=      5-min Rain = 0
KAHS 122351Z 15011KT 40/12 A2987 RMK A01 T03970122  RH  019%=      5-min Rain = 0
KAHS 122352Z 15012KT 40/12 A2987 RMK A01 T03960122  RH  020%=      5-min Rain = 0
KAHS 122353Z 15011KT 39/12 A2987 RMK A01 T03940120  RH  020%=      5-min Rain = 0
KAHS 122354Z 16009KT 39/12 A2987 RMK A01 T03920119  RH  020%=      5-min Rain = 0
KAHS 122355Z 16009KT 39/12 A2987 RMK A01 T03920119  RH  020%=      5-min Rain = 0
KAHS 122356Z 16009KT 39/12 A2987 RMK A01 T03920120  RH  020%=      5-min Rain = 0
KAHS 122357Z 16009KT 39/12 A2987 RMK A01 T03920120  RH  020%=      5-min Rain = 0
KAHS 122358Z 16011KT 39/12 A2987 RMK A01 T03920118  RH  020%=      5-min Rain = 0
KAHS 122359Z 16011KT 39/12 A2987 RMK A01 T03930117  RH  019%=      5-min Rain = 0
KAHS 130000Z 16010KT 39/12 A2987 RMK A01 T03920118  RH  020%=      5-min Rain = 0
KAHS 130001Z 18010KT 39/12 A2987 RMK A01 T03910115  RH  019%=      5-min Rain = 0
KAHS 130002Z 17008KT 39/12 A2987 RMK A01 T03900116  RH  020%=      5-min Rain = 0
KAHS 130003Z 17008KT 39/12 A2987 RMK A01 T03900119  RH  020%=      5-min Rain = 0
KAHS 130004Z 17010KT 39/12 A2987 RMK A01 T03900117  RH  020%=      5-min Rain = 0
KAHS 130005Z 17008KT 39/12 A2987 RMK A01 T03910116  RH  019%=      5-min Rain = 0
KAHS 130006Z 15007KT 39/12 A2987 RMK A01 T03920117  RH  019%=      5-min Rain = 0
KAHS 130007Z 15008KT 39/12 A2987 RMK A01 T03910119  RH  020%=      5-min Rain = 0
KAHS 130008Z 15008KT 39/12 A2986 RMK A01 T03920119  RH  020%=      5-min Rain = 0
KAHS 130009Z 15008KT 39/12 A2987 RMK A01 T03910121  RH  020%=      5-min Rain = 0
KAHS 130010Z 15007KT 39/12 A2987 RMK A01 T03920124  RH  020%=      5-min Rain = 0
KAHS 130011Z 15009KT 39/12 A2986 RMK A01 T03920124  RH  020%=      5-min Rain = 0
KAHS 130012Z 16009KT 39/12 A2986 RMK A01 T03920124  RH  020%=      5-min Rain = 0
KAHS 130013Z 16007KT 39/13 A2986 RMK A01 T03910125  RH  021%=      5-min Rain = 0
KAHS 130014Z 16006KT 39/13 A2986 RMK A01 T03920127  RH  021%=      5-min Rain = 0
KAHS 130015Z 15007KT 39/13 A2987 RMK A01 T03930128  RH  021%=      5-min Rain = 0
KAHS 130016Z 15008KT 39/13 A2987 RMK A01 T03930129  RH  021%=      5-min Rain = 0
KAHS 130017Z 17010KT 39/13 A2987 RMK A01 T03910129  RH  021%=      5-min Rain = 0
KAHS 130018Z 15007G12KT 39/13 A2987 RMK A01 T03900132  RH  022%=      5-min Rain = 0
KAHS 130019Z 15009G14KT 39/13 A2987 RMK A01 T03890134  RH  022%=      5-min Rain = 0
KAHS 130020Z 15009KT 39/13 A2987 RMK A01 T03870132  RH  022%=      5-min Rain = 0
KAHS 130021Z 16008KT 39/13 A2987 RMK A01 T03860131  RH  022%=      5-min Rain = 0
KAHS 130022Z 16007KT 39/13 A2987 RMK A01 T03850132  RH  022%=      5-min Rain = 0
KAHS 130023Z 16006KT 38/13 A2987 RMK A01 T03840133  RH  023%=      5-min Rain = 0
KAHS 130024Z 16005KT 38/13 A2987 RMK A01 T03830133  RH  023%=      5-min Rain = 0
KAHS 130025Z 15006KT 38/13 A2987 RMK A01 T03820133  RH  023%=      5-min Rain = 0
KAHS 130026Z 15009KT 38/13 A2987 RMK A01 T03810131  RH  023%=      5-min Rain = 0
KAHS 130027Z 15008KT 38/13 A2987 RMK A01 T03800132  RH  023%=      5-min Rain = 0
KAHS 130028Z 16007KT 38/13 A2987 RMK A01 T03790132  RH  023%=      5-min Rain = 0
KAHS 130029Z 16009KT 38/13 A2987 RMK A01 T03790132  RH  023%=      5-min Rain = 0
KAHS 130030Z 15008KT 38/13 A2987 RMK A01 T03780130  RH  023%=      5-min Rain = 0
KAHS 130031Z 15007KT 38/13 A2987 RMK A01 T03780134  RH  023%=      5-min Rain = 0
KAHS 130032Z 15008KT 38/14 A2987 RMK A01 T03770137  RH  024%=      5-min Rain = 0
KAHS 130033Z 15007KT 38/14 A2987 RMK A01 T03760136  RH  024%=      5-min Rain = 0
KAHS 130034Z 15008KT 38/14 A2987 RMK A01 T03750136  RH  024%=      5-min Rain = 0
KAHS 130035Z 14010KT 38/13 A2987 RMK A01 T03750129  RH  023%=      5-min Rain = 0
KAHS 130036Z 15010KT 38/13 A2987 RMK A01 T03760127  RH  023%=      5-min Rain = 0
KAHS 130037Z 15009KT 38/13 A2987 RMK A01 T03770127  RH  023%=      5-min Rain = 0
KAHS 130038Z 16007KT 38/13 A2987 RMK A01 T03780129  RH  023%=      5-min Rain = 0
KAHS 130039Z 16008KT 38/13 A2987 RMK A01 T03770129  RH  023%=      5-min Rain = 0
KAHS 130040Z 16009KT 38/13 A2987 RMK A01 T03780126  RH  022%=      5-min Rain = 0
KAHS 130041Z 16008KT 38/12 A2987 RMK A01 T03780120  RH  021%=      5-min Rain = 0
KAHS 130042Z 16008KT 38/12 A2987 RMK A01 T03790118  RH  021%=      5-min Rain = 0
KAHS 130043Z 14005KT 38/12 A2987 RMK A01 T03800121  RH  021%=      5-min Rain = 0
KAHS 130044Z 14007KT 38/13 A2987 RMK A01 T03780132  RH  023%=      5-min Rain = 0
KAHS 130045Z 14008G13KT 38/13 A2987 RMK A01 T03770133  RH  023%=      5-min Rain = 0
KAHS 130046Z 14009KT 38/13 A2987 RMK A01 T03750132  RH  023%=      5-min Rain = 0
KAHS 130047Z 15009KT 38/13 A2987 RMK A01 T03750128  RH  023%=      5-min Rain = 0
KAHS 130048Z 16011KT 38/12 A2987 RMK A01 T03750124  RH  022%=      5-min Rain = 0
KAHS 130049Z 16010KT 38/12 A2987 RMK A01 T03760121  RH  022%=      5-min Rain = 0
KAHS 130050Z 16010KT 38/12 A2987 RMK A01 T03770120  RH  022%=      5-min Rain = 0
KAHS 130051Z 16009KT 38/12 A2987 RMK A01 T03770120  RH  022%=      5-min Rain = 0
KAHS 130052Z 15008KT 38/12 A2987 RMK A01 T03770121  RH  022%=      5-min Rain = 0
KAHS 130053Z 16007KT 38/12 A2987 RMK A01 T03770121  RH  022%=      5-min Rain = 0
KAHS 130054Z 15005KT 38/12 A2987 RMK A01 T03760123  RH  022%=      5-min Rain = 0
KAHS 130055Z 14006KT 38/13 A2987 RMK A01 T03750128  RH  023%=      5-min Rain = 0
KAHS 130056Z 15007KT 37/13 A2987 RMK A01 T03730132  RH  024%=      5-min Rain = 0
KAHS 130057Z 15006KT 37/13 A2987 RMK A01 T03720134  RH  024%=      5-min Rain = 0
KAHS 130058Z 15007KT 37/13 A2987 RMK A01 T03700134  RH  024%=      5-min Rain = 0
KAHS 130059Z 15006KT 37/14 A2987 RMK A01 T03700136  RH  025%=      5-min Rain = 0
KAHS 130100Z 15005KT 37/14 A2987 RMK A01 T03690137  RH  025%=      5-min Rain = 0
KAHS 130101Z 15007KT 37/14 A2988 RMK A01 T03680137  RH  025%=      5-min Rain = 0
KAHS 130102Z 15007KT 37/14 A2987 RMK A01 T03680136  RH  025%=      5-min Rain = 0
KAHS 130103Z 14005KT 37/14 A2988 RMK A01 T03680137  RH  025%=      5-min Rain = 0
KAHS 130104Z 14006KT 37/14 A2988 RMK A01 T03670137  RH  025%=      5-min Rain = 0
KAHS 130105Z 15007KT 37/14 A2988 RMK A01 T03670136  RH  025%=      5-min Rain = 0
KAHS 130106Z 15007KT 37/14 A2988 RMK A01 T03670135  RH  025%=      5-min Rain = 0
KAHS 130107Z 14006KT 37/13 A2988 RMK A01 T03670131  RH  024%=      5-min Rain = 0
KAHS 130108Z 14008KT 37/13 A2988 RMK A01 T03680131  RH  024%=      5-min Rain = 0
KAHS 130109Z 15007KT 37/13 A2988 RMK A01 T03680129  RH  024%=      5-min Rain = 0
KAHS 130110Z 14007KT 37/13 A2988 RMK A01 T03680128  RH  024%=      5-min Rain = 0
KAHS 130111Z 15008KT 37/13 A2988 RMK A01 T03680126  RH  023%=      5-min Rain = 0
KAHS 130112Z 15007KT 37/13 A2988 RMK A01 T03680126  RH  024%=      5-min Rain = 0
KAHS 130113Z 15008KT 37/13 A2988 RMK A01 T03680126  RH  024%=      5-min Rain = 0
KAHS 130114Z 15009KT 37/12 A2988 RMK A01 T03680124  RH  023%=      5-min Rain = 0
KAHS 130115Z 14009KT 37/12 A2988 RMK A01 T03690122  RH  023%=      5-min Rain = 0
KAHS 130116Z 14008KT 37/12 A2988 RMK A01 T03690122  RH  023%=      5-min Rain = 0
KAHS 130117Z 14008KT 37/12 A2988 RMK A01 T03690123  RH  023%=      5-min Rain = 0
KAHS 130118Z 15010KT 37/12 A2988 RMK A01 T03690121  RH  023%=      5-min Rain = 0
KAHS 130119Z 15011KT 37/12 A2988 RMK A01 T03680119  RH  022%=      5-min Rain = 0
KAHS 130120Z 15008KT 37/12 A2988 RMK A01 T03680119  RH  022%=      5-min Rain = 0
KAHS 130121Z 15008KT 37/12 A2988 RMK A01 T03680120  RH  022%=      5-min Rain = 0
KAHS 130122Z 14009KT 37/12 A2988 RMK A01 T03680118  RH  022%=      5-min Rain = 0
KAHS 130123Z 14008KT 37/12 A2988 RMK A01 T03680116  RH  022%=      5-min Rain = 0
KAHS 130124Z 14008KT 37/12 A2988 RMK A01 T03680115  RH  022%=      5-min Rain = 0
KAHS 130125Z 15009KT 37/11 A2988 RMK A01 T03680114  RH  022%=      5-min Rain = 0
KAHS 130126Z 15008KT 37/11 A2988 RMK A01 T03680114  RH  022%=      5-min Rain = 0
KAHS 130127Z 15008KT 37/11 A2988 RMK A01 T03680114  RH  022%=      5-min Rain = 0
KAHS 130128Z 15007KT 37/12 A2988 RMK A01 T03670115  RH  022%=      5-min Rain = 0
KAHS 130129Z 15009KT 37/12 A2988 RMK A01 T03660116  RH  022%=      5-min Rain = 0
KAHS 130130Z 15007KT 37/12 A2988 RMK A01 T03660118  RH  022%=      5-min Rain = 0
KAHS 130131Z 15008KT 37/12 A2988 RMK A01 T03650119  RH  023%=      5-min Rain = 0
KAHS 130132Z 15008KT 36/12 A2988 RMK A01 T03640120  RH  023%=      5-min Rain = 0
KAHS 130133Z 15008KT 36/12 A2988 RMK A01 T03640120  RH  023%=      5-min Rain = 0
KAHS 130134Z 15007KT 36/12 A2988 RMK A01 T03640121  RH  023%=      5-min Rain = 0
KAHS 130135Z 15007KT 36/12 A2988 RMK A01 T03630123  RH  024%=      5-min Rain = 0
KAHS 130136Z 15008KT 36/12 A2988 RMK A01 T03620124  RH  024%=      5-min Rain = 0
KAHS 130137Z 15008KT 36/12 A2988 RMK A01 T03620123  RH  024%=      5-min Rain = 0
KAHS 130138Z 15007KT 36/13 A2988 RMK A01 T03610125  RH  024%=      5-min Rain = 0
KAHS 130139Z 15007KT 36/13 A2988 RMK A01 T03600127  RH  025%=      5-min Rain = 0
KAHS 130140Z 15007KT 36/13 A2988 RMK A01 T03590127  RH  025%=      5-min Rain = 0
KAHS 130141Z 15007KT 36/13 A2988 RMK A01 T03580128  RH  025%=      5-min Rain = 0
KAHS 130142Z 15006KT 36/13 A2988 RMK A01 T03570129  RH  025%=      5-min Rain = 0
KAHS 130143Z 15007KT 36/13 A2988 RMK A01 T03560128  RH  025%=      5-min Rain = 0
KAHS 130144Z 15007KT 36/13 A2988 RMK A01 T03560127  RH  025%=      5-min Rain = 0
KAHS 130145Z 15007KT 36/13 A2988 RMK A01 T03550126  RH  025%=      5-min Rain = 0
KAHS 130146Z 14007KT 36/13 A2988 RMK A01 T03550126  RH  025%=      5-min Rain = 0
KAHS 130147Z 14006KT 36/13 A2988 RMK A01 T03550125  RH  025%=      5-min Rain = 0
KAHS 130148Z 15006KT 35/12 A2988 RMK A01 T03540123  RH  025%=      5-min Rain = 0
KAHS 130149Z 15007KT 35/12 A2988 RMK A01 T03540123  RH  025%=      5-min Rain = 0
KAHS 130150Z 15007KT 35/12 A2988 RMK A01 T03540123  RH  025%=      5-min Rain = 0
KAHS 130151Z 15007KT 35/12 A2988 RMK A01 T03540123  RH  025%=      5-min Rain = 0
KAHS 130152Z 15007KT 35/12 A2988 RMK A01 T03540123  RH  025%=      5-min Rain = 0
KAHS 130153Z 15007KT 35/12 A2988 RMK A01 T03540123  RH  025%=      5-min Rain = 0
KAHS 130154Z 15008KT 35/12 A2988 RMK A01 T03540122  RH  025%=      5-min Rain = 0
KAHS 130155Z 15008KT 35/12 A2988 RMK A01 T03540122  RH  025%=      5-min Rain = 0
KAHS 130156Z 15006KT 35/12 A2988 RMK A01 T03540122  RH  025%=      5-min Rain = 0
KAHS 130157Z 14008KT 35/12 A2988 RMK A01 T03530121  RH  025%=      5-min Rain = 0
KAHS 130158Z 15007KT 35/12 A2988 RMK A01 T03530121  RH  025%=      5-min Rain = 0
KAHS 130159Z 15007KT 35/12 A2988 RMK A01 T03530121  RH  025%=      5-min Rain = 0
KAHS 130200Z 15007KT 35/12 A2988 RMK A01 T03530121  RH  025%=      5-min Rain = 0
KAHS 130201Z 15007KT 35/12 A2988 RMK A01 T03530122  RH  025%=      5-min Rain = 0
KAHS 130202Z 15006KT 35/12 A2988 RMK A01 T03520124  RH  025%=      5-min Rain = 0
KAHS 130203Z 15007KT 35/13 A2988 RMK A01 T03520128  RH  026%=      5-min Rain = 0
KAHS 130204Z 15006KT 35/13 A2988 RMK A01 T03510130  RH  026%=      5-min Rain = 0
KAHS 130205Z 15007KT 35/13 A2988 RMK A01 T03500131  RH  027%=      5-min Rain = 0
KAHS 130206Z 15006KT 35/13 A2988 RMK A01 T03490131  RH  027%=      5-min Rain = 0
KAHS 130207Z 15007KT 35/13 A2988 RMK A01 T03480131  RH  027%=      5-min Rain = 0
KAHS 130208Z 14007KT 35/13 A2988 RMK A01 T03480132  RH  027%=      5-min Rain = 0
KAHS 130209Z 15008KT 35/13 A2988 RMK A01 T03470131  RH  027%=      5-min Rain = 0
KAHS 130210Z 15006KT 35/13 A2988 RMK A01 T03470129  RH  027%=      5-min Rain = 0
KAHS 130211Z 15007KT 35/13 A2988 RMK A01 T03470129  RH  027%=      5-min Rain = 0
KAHS 130212Z 15006KT 35/13 A2988 RMK A01 T03470129  RH  027%=      5-min Rain = 0
KAHS 130213Z 15006KT 35/13 A2989 RMK A01 T03460129  RH  027%=      5-min Rain = 0
KAHS 130214Z 15006KT 35/13 A2989 RMK A01 T03460128  RH  027%=      5-min Rain = 0
KAHS 130215Z 15006KT 35/13 A2989 RMK A01 T03450129  RH  027%=      5-min Rain = 0
KAHS 130216Z 14006KT 35/13 A2989 RMK A01 T03450129  RH  027%=      5-min Rain = 0
KAHS 130217Z 15007KT 34/13 A2989 RMK A01 T03440129  RH  027%=      5-min Rain = 0
KAHS 130218Z 15007KT 34/13 A2989 RMK A01 T03440129  RH  027%=      5-min Rain = 0
KAHS 130219Z 15007KT 34/13 A2989 RMK A01 T03440129  RH  027%=      5-min Rain = 0
KAHS 130220Z 15007KT 34/13 A2989 RMK A01 T03440128  RH  027%=      5-min Rain = 0
KAHS 130221Z 15007KT 34/13 A2989 RMK A01 T03440129  RH  027%=      5-min Rain = 0
KAHS 130222Z 15007KT 34/13 A2989 RMK A01 T03430130  RH  028%=      5-min Rain = 0
KAHS 130223Z 15007KT 34/13 A2989 RMK A01 T03420132  RH  028%=      5-min Rain = 0
KAHS 130224Z 15006KT 34/13 A2989 RMK A01 T03420131  RH  028%=      5-min Rain = 0
KAHS 130225Z 15007KT 34/13 A2989 RMK A01 T03410132  RH  028%=      5-min Rain = 0
KAHS 130226Z 15006KT 34/13 A2989 RMK A01 T03410133  RH  029%=      5-min Rain = 0
KAHS 130227Z 15007KT 34/13 A2989 RMK A01 T03400133  RH  029%=      5-min Rain = 0
KAHS 130228Z 15006KT 34/13 A2989 RMK A01 T03400133  RH  029%=      5-min Rain = 0
KAHS 130229Z 15006KT 34/13 A2989 RMK A01 T03400132  RH  028%=      5-min Rain = 0
KAHS 130230Z 15006KT 34/13 A2989 RMK A01 T03400132  RH  029%=      5-min Rain = 0
KAHS 130231Z 15007KT 34/13 A299 RMK A01 T03390129  RH  028%=      5-min Rain = 0
KAHS 130232Z 15006KT 34/13 A299 RMK A01 T03400128  RH  028%=      5-min Rain = 0
KAHS 130233Z 15006KT 34/13 A299 RMK A01 T03410129  RH  028%=      5-min Rain = 0
KAHS 130234Z 15006KT 34/13 A299 RMK A01 T03400127  RH  028%=      5-min Rain = 0
KAHS 130235Z 15008KT 34/13 A299 RMK A01 T03400128  RH  028%=      5-min Rain = 0
KAHS 130236Z 15008KT 34/13 A299 RMK A01 T03410129  RH  028%=      5-min Rain = 0
KAHS 130237Z 15007KT 34/13 A299 RMK A01 T03420130  RH  028%=      5-min Rain = 0
KAHS 130238Z 15006KT 34/13 A299 RMK A01 T03420130  RH  028%=      5-min Rain = 0
KAHS 130239Z 15007KT 34/13 A299 RMK A01 T03420130  RH  028%=      5-min Rain = 0
KAHS 130240Z 15008KT 34/13 A299 RMK A01 T03410129  RH  028%=      5-min Rain = 0
KAHS 130241Z 15007KT 34/13 A299 RMK A01 T03420131  RH  028%=      5-min Rain = 0
KAHS 130242Z 15007KT 34/13 A299 RMK A01 T03420132  RH  028%=      5-min Rain = 0
KAHS 130243Z 15007KT 34/13 A299 RMK A01 T03410132  RH  028%=      5-min Rain = 0
KAHS 130244Z 15007KT 34/13 A299 RMK A01 T03410134  RH  029%=      5-min Rain = 0
KAHS 130245Z 15007KT 34/14 A299 RMK A01 T03410135  RH  029%=      5-min Rain = 0
KAHS 130246Z 14007KT 34/14 A299 RMK A01 T03400136  RH  029%=      5-min Rain = 0
KAHS 130247Z 15007KT 34/14 A299 RMK A01 T03400137  RH  029%=      5-min Rain = 0
KAHS 130248Z 15006KT 34/14 A2991 RMK A01 T03400137  RH  029%=      5-min Rain = 0
KAHS 130249Z 14008KT 34/14 A2991 RMK A01 T03390136  RH  029%=      5-min Rain = 0
KAHS 130250Z 15007KT 34/14 A2991 RMK A01 T03390136  RH  029%=      5-min Rain = 0
KAHS 130251Z 15008KT 34/14 A2991 RMK A01 T03400136  RH  029%=      5-min Rain = 0
KAHS 130252Z 15007KT 34/14 A2991 RMK A01 T03400136  RH  029%=      5-min Rain = 0
KAHS 130253Z 15007KT 34/14 A2991 RMK A01 T03390135  RH  029%=      5-min Rain = 0
KAHS 130254Z 14007KT 34/14 A2991 RMK A01 T03390136  RH  029%=      5-min Rain = 0
KAHS 130255Z 14007KT 34/14 A2991 RMK A01 T03390136  RH  029%=      5-min Rain = 0
KAHS 130256Z 15008KT 34/14 A2991 RMK A01 T03390136  RH  029%=      5-min Rain = 0
KAHS 130257Z 14007KT 34/14 A2991 RMK A01 T03380135  RH  029%=      5-min Rain = 0
KAHS 130258Z 15008KT 34/13 A2991 RMK A01 T03380134  RH  029%=      5-min Rain = 0
KAHS 130259Z 14008KT 34/13 A2991 RMK A01 T03380134  RH  029%=      5-min Rain = 0
KAHS 130300Z 15009KT 34/13 A2991 RMK A01 T03390134  RH  029%=      5-min Rain = 0
KAHS 130301Z 14008KT 34/13 A2991 RMK A01 T03400134  RH  029%=      5-min Rain = 0
KAHS 130302Z 15007KT 34/14 A2991 RMK A01 T03400135  RH  029%=      5-min Rain = 0
KAHS 130303Z 15007KT 34/13 A2991 RMK A01 T03400134  RH  029%=      5-min Rain = 0
KAHS 130304Z 15007KT 34/13 A2991 RMK A01 T03400134  RH  029%=      5-min Rain = 0
KAHS 130305Z 15007KT 34/14 A2991 RMK A01 T03390135  RH  029%=      5-min Rain = 0
KAHS 130306Z 15008KT 34/14 A2991 RMK A01 T03390135  RH  029%=      5-min Rain = 0
KAHS 130307Z 15009KT 34/14 A2991 RMK A01 T03390135  RH  029%=      5-min Rain = 0
KAHS 130308Z 15006KT 34/14 A2991 RMK A01 T03390136  RH  029%=      5-min Rain = 0
KAHS 130309Z 15007KT 34/14 A2991 RMK A01 T03390138  RH  030%=      5-min Rain = 0
KAHS 130310Z 15008KT 34/14 A2991 RMK A01 T03380139  RH  030%=      5-min Rain = 0
KAHS 130311Z 15007KT 34/14 A2991 RMK A01 T03380140  RH  030%=      5-min Rain = 0
KAHS 130312Z 15006KT 34/14 A2991 RMK A01 T03370140  RH  031%=      5-min Rain = 0
KAHS 130313Z 16007KT 34/14 A2991 RMK A01 T03370140  RH  031%=      5-min Rain = 0
KAHS 130314Z 16006KT 34/14 A2991 RMK A01 T03360140  RH  031%=      5-min Rain = 0
KAHS 130315Z 16008KT 34/14 A2991 RMK A01 T03360140  RH  031%=      5-min Rain = 0
KAHS 130316Z 16007KT 34/14 A2991 RMK A01 T03360139  RH  030%=      5-min Rain = 0
KAHS 130317Z 16007KT 34/14 A2991 RMK A01 T03360139  RH  030%=      5-min Rain = 0
KAHS 130318Z 16007KT 34/14 A2991 RMK A01 T03360138  RH  030%=      5-min Rain = 0
KAHS 130319Z 17008KT 34/14 A2991 RMK A01 T03360137  RH  030%=      5-min Rain = 0
KAHS 130320Z 16009KT 34/13 A2991 RMK A01 T03370129  RH  028%=      5-min Rain = 0
KAHS 130321Z 16008KT 34/13 A2991 RMK A01 T03390126  RH  028%=      5-min Rain = 0
KAHS 130322Z 16007KT 34/13 A2991 RMK A01 T03400125  RH  027%=      5-min Rain = 0
KAHS 130323Z 17009KT 34/12 A2991 RMK A01 T03400123  RH  027%=      5-min Rain = 0
KAHS 130324Z 17008KT 34/12 A2992 RMK A01 T03410123  RH  027%=      5-min Rain = 0
KAHS 130325Z 16008KT 34/12 A2992 RMK A01 T03410123  RH  027%=      5-min Rain = 0
KAHS 130326Z 16008KT 34/12 A2992 RMK A01 T03410122  RH  027%=      5-min Rain = 0
KAHS 130327Z 17009KT 34/12 A2992 RMK A01 T03420123  RH  027%=      5-min Rain = 0
KAHS 130328Z 17008KT 34/12 A2992 RMK A01 T03410122  RH  027%=      5-min Rain = 0
KAHS 130329Z 17010KT 34/12 A2992 RMK A01 T03420122  RH  026%=      5-min Rain = 0
KAHS 130330Z 17008KT 34/12 A2992 RMK A01 T03430122  RH  026%=      5-min Rain = 0
KAHS 130331Z 17008KT 34/12 A2992 RMK A01 T03430122  RH  026%=      5-min Rain = 0
KAHS 130332Z 17009KT 34/12 A2992 RMK A01 T03420122  RH  026%=      5-min Rain = 0
KAHS 130333Z 17008KT 34/12 A2992 RMK A01 T03420122  RH  026%=      5-min Rain = 0
KAHS 130334Z 16009KT 34/12 A2992 RMK A01 T03420122  RH  026%=      5-min Rain = 0
KAHS 130335Z 17009KT 34/12 A2992 RMK A01 T03410121  RH  026%=      5-min Rain = 0
KAHS 130336Z 17009KT 34/12 A2992 RMK A01 T03420121  RH  026%=      5-min Rain = 0
KAHS 130337Z 16008KT 34/12 A2992 RMK A01 T03420121  RH  026%=      5-min Rain = 0
KAHS 130338Z 16009KT 34/12 A2992 RMK A01 T03420122  RH  026%=      5-min Rain = 0
KAHS 130339Z 16009KT 34/12 A2992 RMK A01 T03410121  RH  026%=      5-min Rain = 0
KAHS 130340Z 16008KT 34/12 A2992 RMK A01 T03410121  RH  026%=      5-min Rain = 0
KAHS 130341Z 16007KT 34/12 A2992 RMK A01 T03410121  RH  026%=      5-min Rain = 0
KAHS 130342Z 16008KT 34/12 A2992 RMK A01 T03400121  RH  027%=      5-min Rain = 0
KAHS 130343Z 16008KT 34/12 A2992 RMK A01 T03390120  RH  026%=      5-min Rain = 0
KAHS 130344Z 16008KT 34/12 A2992 RMK A01 T03400121  RH  026%=      5-min Rain = 0
KAHS 130345Z 15007KT 34/12 A2992 RMK A01 T03390121  RH  027%=      5-min Rain = 0
KAHS 130346Z 16007KT 34/12 A2992 RMK A01 T03390122  RH  027%=      5-min Rain = 0
KAHS 130347Z 15008KT 34/12 A2992 RMK A01 T03390122  RH  027%=      5-min Rain = 0
KAHS 130348Z 16007KT 34/12 A2992 RMK A01 T03390122  RH  027%=      5-min Rain = 0
KAHS 130349Z 16007KT 34/12 A2992 RMK A01 T03380122  RH  027%=      5-min Rain = 0
KAHS 130350Z 16008KT 34/12 A2992 RMK A01 T03380122  RH  027%=      5-min Rain = 0
KAHS 130351Z 16007KT 34/12 A2992 RMK A01 T03380122  RH  027%=      5-min Rain = 0
KAHS 130352Z 16009KT 34/12 A2992 RMK A01 T03370122  RH  027%=      5-min Rain = 0
KAHS 130353Z 16007KT 34/12 A2992 RMK A01 T03380122  RH  027%=      5-min Rain = 0
KAHS 130354Z 16009KT 34/12 A2992 RMK A01 T03380121  RH  027%=      5-min Rain = 0
KAHS 130355Z 16009KT 34/12 A2992 RMK A01 T03380120  RH  027%=      5-min Rain = 0
KAHS 130356Z 16008KT 34/12 A2992 RMK A01 T03390120  RH  026%=      5-min Rain = 0
KAHS 130357Z 17008KT 34/12 A2992 RMK A01 T03390119  RH  026%=      5-min Rain = 0
KAHS 130358Z 16009KT 34/12 A2992 RMK A01 T03390119  RH  026%=      5-min Rain = 0
KAHS 130359Z 16008KT 34/12 A2992 RMK A01 T03390118  RH  026%=      5-min Rain = 0
KAHS 130400Z 16009KT 34/12 A2992 RMK A01 T03390119  RH  026%=      5-min Rain = 0
KAHS 130401Z 17008KT 34/12 A2992 RMK A01 T03390118  RH  026%=      5-min Rain = 0
KAHS 130402Z 17009KT 34/12 A2992 RMK A01 T03390118  RH  026%=      5-min Rain = 0
KAHS 130403Z 17008KT 34/12 A2992 RMK A01 T03390119  RH  026%=      5-min Rain = 0
KAHS 130404Z 16008KT 34/12 A2992 RMK A01 T03390119  RH  026%=      5-min Rain = 0
KAHS 130405Z 16008KT 34/12 A2992 RMK A01 T03380119  RH  026%=      5-min Rain = 0
KAHS 130406Z 17009KT 34/12 A2992 RMK A01 T03380119  RH  026%=      5-min Rain = 0
KAHS 130407Z 17008KT 34/12 A2992 RMK A01 T03380119  RH  026%=      5-min Rain = 0
KAHS 130408Z 17008KT 34/12 A2992 RMK A01 T03380119  RH  026%=      5-min Rain = 0
KAHS 130409Z 16010KT 34/12 A2992 RMK A01 T03380119  RH  026%=      5-min Rain = 0
KAHS 130410Z 17009KT 34/12 A2992 RMK A01 T03370118  RH  026%=      5-min Rain = 0
KAHS 130411Z 17008KT 34/12 A2992 RMK A01 T03380119  RH  026%=      5-min Rain = 0
KAHS 130412Z 17009KT 34/12 A2992 RMK A01 T03370118  RH  026%=      5-min Rain = 0
KAHS 130413Z 17009KT 34/12 A2992 RMK A01 T03380119  RH  026%=      5-min Rain = 0
KAHS 130414Z 17009KT 34/12 A2992 RMK A01 T03380118  RH  026%=      5-min Rain = 0
KAHS 130415Z 17012KT 34/12 A2992 RMK A01 T03380118  RH  026%=      5-min Rain = 0
KAHS 130416Z 17008KT 34/12 A2992 RMK A01 T03380118  RH  026%=      5-min Rain = 0
KAHS 130417Z 17009KT 34/12 A2992 RMK A01 T03380119  RH  026%=      5-min Rain = 0
KAHS 130418Z 17008KT 34/12 A2992 RMK A01 T03380119  RH  026%=      5-min Rain = 0
KAHS 130419Z 17008KT 34/12 A2992 RMK A01 T03380119  RH  027%=      5-min Rain = 0
KAHS 130420Z 17010KT 34/12 A2992 RMK A01 T03370119  RH  026%=      5-min Rain = 0
KAHS 130421Z 16009KT 34/12 A2992 RMK A01 T03380119  RH  026%=      5-min Rain = 0
KAHS 130422Z 17010KT 34/12 A2992 RMK A01 T03380119  RH  026%=      5-min Rain = 0
KAHS 130423Z 17011KT 34/12 A2992 RMK A01 T03380119  RH  026%=      5-min Rain = 0
KAHS 130424Z 17009KT 34/12 A2992 RMK A01 T03380119  RH  026%=      5-min Rain = 0
KAHS 130425Z 17008KT 34/12 A2992 RMK A01 T03380119  RH  027%=      5-min Rain = 0
KAHS 130426Z 16010KT 34/12 A2992 RMK A01 T03370119  RH  027%=      5-min Rain = 0
KAHS 130427Z 17009KT 34/12 A2992 RMK A01 T03370119  RH  027%=      5-min Rain = 0
KAHS 130428Z 17008KT 34/12 A2992 RMK A01 T03370120  RH  027%=      5-min Rain = 0
KAHS 130429Z 17008KT 34/12 A2992 RMK A01 T03370119  RH  027%=      5-min Rain = 0
KAHS 130430Z 17008KT 34/12 A2992 RMK A01 T03370120  RH  027%=      5-min Rain = 0
KAHS 130431Z 17009KT 34/12 A2992 RMK A01 T03360120  RH  027%=      5-min Rain = 0
KAHS 130432Z 17009KT 34/12 A2992 RMK A01 T03360120  RH  027%=      5-min Rain = 0
KAHS 130433Z 17008KT 34/12 A2992 RMK A01 T03370120  RH  027%=      5-min Rain = 0
KAHS 130434Z 18010KT 34/12 A2992 RMK A01 T03370120  RH  027%=      5-min Rain = 0
KAHS 130435Z 18010KT 34/12 A2992 RMK A01 T03370120  RH  027%=      5-min Rain = 0
KAHS 130436Z 17009KT 34/12 A2992 RMK A01 T03380121  RH  027%=      5-min Rain = 0
KAHS 130437Z 17010KT 34/12 A2992 RMK A01 T03370121  RH  027%=      5-min Rain = 0
KAHS 130438Z 18010KT 34/12 A2992 RMK A01 T03380120  RH  027%=      5-min Rain = 0
KAHS 130439Z 17012KT 34/12 A2992 RMK A01 T03380120  RH  027%=      5-min Rain = 0
KAHS 130440Z 18010KT 34/12 A2992 RMK A01 T03390121  RH  027%=      5-min Rain = 0
KAHS 130441Z 18010KT 34/12 A2992 RMK A01 T03380121  RH  027%=      5-min Rain = 0
KAHS 130442Z 17010KT 34/12 A2992 RMK A01 T03380121  RH  027%=      5-min Rain = 0
KAHS 130443Z 18010G15KT 34/12 A2992 RMK A01 T03380122  RH  027%=      5-min Rain = 0
KAHS 130444Z 17011KT 34/12 A2992 RMK A01 T03380122  RH  027%=      5-min Rain = 0
KAHS 130445Z 18010KT 34/12 A2992 RMK A01 T03380122  RH  027%=      5-min Rain = 0
KAHS 130446Z 17014KT 34/12 A2992 RMK A01 T03380122  RH  027%=      5-min Rain = 0
KAHS 130447Z 17013KT 34/12 A2992 RMK A01 T03380122  RH  027%=      5-min Rain = 0
KAHS 130448Z 17011KT 34/12 A2992 RMK A01 T03380123  RH  027%=      5-min Rain = 0
KAHS 130449Z 17010KT 34/12 A2992 RMK A01 T03380123  RH  027%=      5-min Rain = 0
KAHS 130450Z 17010KT 34/12 A2992 RMK A01 T03370124  RH  027%=      5-min Rain = 0
KAHS 130451Z 18008KT 34/12 A2992 RMK A01 T03370124  RH  028%=      5-min Rain = 0
KAHS 130452Z 17009KT 34/12 A2992 RMK A01 T03350124  RH  028%=      5-min Rain = 0
KAHS 130453Z 18011KT 34/12 A2992 RMK A01 T03350124  RH  028%=      5-min Rain = 0
KAHS 130454Z 18010KT 34/12 A2993 RMK A01 T03360124  RH  028%=      5-min Rain = 0
KAHS 130455Z 18011KT 34/13 A2993 RMK A01 T03360125  RH  028%=      5-min Rain = 0
KAHS 130456Z 18009KT 34/13 A2993 RMK A01 T03360125  RH  028%=      5-min Rain = 0
KAHS 130457Z 18008KT 34/13 A2993 RMK A01 T03350125  RH  028%=      5-min Rain = 0
KAHS 130458Z 18007G12KT 33/13 A2993 RMK A01 T03340125  RH  028%=      5-min Rain = 0
KAHS 130459Z 18010KT 33/13 A2993 RMK A01 T03330125  RH  028%=      5-min Rain = 0

Page generated in 0.1262 seconds.